Darstellungsparameter: Aktuell verwendete Einstellungen:
Skalierung der Graphiken ... ?
xyx+y,   Skalierungsfaktor:      Skalierung: Modus: x, Faktor: 1
Darstellungszeitraum ... ?
Vom - - bis: - -   Zeitraum: 20.06.2016 - 26.06.2016
Min/Max/Avg-Anzeige ... ?
Zeige MMA aktuell
Zeige MMA Monat
Zeige MMA alles
Zeige --A aktuell
Zeige --A Monat
Zeige --A alles
Keine MMA-Anzeige
MMA:
Keine MMA-Graphiken
MMA-Basis: 20.06.2016 - 26.06.2016
Quicknavigation für Darstellung... ?
Tage:      1T, 2T, 3T, 5T -1T -2T -3T -5T +1T +2T +3T +5T
Wochen: 1W, 2W, 3W -1W -2W -3W +1W +2W +3W
Monate: 1M, 3M, 6M -1M -3M -6M +1M +3M +6M
Jahre:    1J, 3J, 5J, 10J -1J -3J -5J -10J +1J +3J +5J +10J
Nutze für die Darstellung ... ?
Originaldaten oder Mittelwerte auf ...
Stundenbasis Tagesbasis Wochenbasis
Monatsbasis Jahresbasis      Datenbasis: Original-Daten
Darstellen als:
Statistik (Auto) Statistik J:M      Darstellung:
Zur Graphik,    zurück zur Übersicht aller Sensoren.
 
Tabellarische Datenbersicht: ?
 
Sensor: Nr:Datum:Temp:Feuchte:Taupunkt:
Aussen-T/F 1 20-06-2016 00:00:00 10.7 C 88 % 8.8 C
2 20-06-2016 00:05:00 10.6 C 89 % 8.86 C
3 20-06-2016 00:10:00 10.5 C 89 % 8.77 C
4 20-06-2016 00:15:00 10.4 C 89 % 8.67 C
5 20-06-2016 00:20:00 10.3 C 89 % 8.57 C
6 20-06-2016 00:25:00 10.3 C 89 % 8.57 C
7 20-06-2016 00:30:00 10.2 C 90 % 8.64 C
8 20-06-2016 00:35:00 10.2 C 90 % 8.64 C
9 20-06-2016 00:40:00 10.1 C 90 % 8.54 C
10 20-06-2016 00:45:00 10 C 90 % 8.44 C
11 20-06-2016 00:50:00 9.9 C 91 % 8.5 C
12 20-06-2016 00:55:00 9.9 C 91 % 8.5 C
13 20-06-2016 01:00:00 9.8 C 91 % 8.4 C
14 20-06-2016 01:05:00 9.8 C 91 % 8.4 C
15 20-06-2016 01:10:00 9.7 C 91 % 8.3 C
16 20-06-2016 01:15:00 9.7 C 91 % 8.3 C
17 20-06-2016 01:20:00 9.6 C 91 % 8.21 C
18 20-06-2016 01:25:00 9.6 C 91 % 8.21 C
19 20-06-2016 01:30:00 9.5 C 92 % 8.27 C
20 20-06-2016 01:35:00 9.4 C 92 % 8.17 C
21 20-06-2016 01:40:00 9.4 C 92 % 8.17 C
22 20-06-2016 01:45:00 9.3 C 92 % 8.07 C
23 20-06-2016 01:50:00 9.3 C 92 % 8.07 C
24 20-06-2016 01:55:00 9.3 C 92 % 8.07 C
25 20-06-2016 02:00:00 9.3 C 92 % 8.07 C
Sensor: Nr:Datum:Temp:Feuchte:Taupunkt:
Aussen-T/F 26 20-06-2016 02:05:00 9.2 C 92 % 7.97 C
27 20-06-2016 02:10:00 9.2 C 92 % 7.97 C
28 20-06-2016 02:15:00 9.1 C 92 % 7.87 C
29 20-06-2016 02:20:00 9 C 92 % 7.77 C
30 20-06-2016 02:25:00 8.9 C 92 % 7.67 C
31 20-06-2016 02:30:00 8.9 C 93 % 7.83 C
32 20-06-2016 02:35:00 8.9 C 93 % 7.83 C
33 20-06-2016 02:40:00 8.8 C 93 % 7.73 C
34 20-06-2016 02:45:00 8.8 C 93 % 7.73 C
35 20-06-2016 02:50:00 8.7 C 93 % 7.63 C
36 20-06-2016 02:55:00 8.7 C 93 % 7.63 C
37 20-06-2016 03:00:00 8.6 C 93 % 7.53 C
38 20-06-2016 03:05:00 8.6 C 93 % 7.53 C
39 20-06-2016 03:10:00 8.5 C 93 % 7.43 C
40 20-06-2016 03:15:00 8.5 C 93 % 7.43 C
41 20-06-2016 03:20:00 8.4 C 93 % 7.34 C
42 20-06-2016 03:25:00 8.4 C 93 % 7.34 C
43 20-06-2016 03:30:00 8.4 C 94 % 7.49 C
44 20-06-2016 03:35:00 8.3 C 94 % 7.39 C
45 20-06-2016 03:40:00 8.3 C 94 % 7.39 C
46 20-06-2016 03:45:00 8.3 C 94 % 7.39 C
47 20-06-2016 03:50:00 8.3 C 94 % 7.39 C
48 20-06-2016 03:55:00 8.3 C 94 % 7.39 C
49 20-06-2016 04:00:00 8.3 C 94 % 7.39 C
50 20-06-2016 04:05:00 8.3 C 94 % 7.39 C
Sensor: Nr:Datum:Temp:Feuchte:Taupunkt:
Aussen-T/F 51 20-06-2016 04:10:00 8.2 C 94 % 7.29 C
52 20-06-2016 04:15:00 8.2 C 94 % 7.29 C
53 20-06-2016 04:20:00 8.2 C 94 % 7.29 C
54 20-06-2016 04:25:00 8.2 C 94 % 7.29 C
55 20-06-2016 04:30:00 8.2 C 94 % 7.29 C
56 20-06-2016 04:35:00 8.1 C 94 % 7.19 C
57 20-06-2016 04:40:00 8.1 C 94 % 7.19 C
58 20-06-2016 04:45:00 8.1 C 94 % 7.19 C
59 20-06-2016 04:50:00 8 C 94 % 7.09 C
60 20-06-2016 04:55:00 7.9 C 94 % 7 C
61 20-06-2016 05:00:00 7.9 C 94 % 7 C
62 20-06-2016 05:05:00 7.9 C 94 % 7 C
63 20-06-2016 05:10:00 7.8 C 95 % 7.05 C
64 20-06-2016 05:15:00 7.8 C 94 % 6.9 C
65 20-06-2016 05:20:00 7.8 C 94 % 6.9 C
66 20-06-2016 05:25:00 7.8 C 94 % 6.9 C
67 20-06-2016 05:30:00 7.8 C 94 % 6.9 C
68 20-06-2016 05:35:00 7.7 C 94 % 6.8 C
69 20-06-2016 05:40:00 7.7 C 95 % 6.95 C
70 20-06-2016 05:45:00 7.7 C 95 % 6.95 C
71 20-06-2016 05:50:00 7.6 C 95 % 6.85 C
72 20-06-2016 05:55:00 7.6 C 95 % 6.85 C
73 20-06-2016 06:00:00 7.6 C 95 % 6.85 C
74 20-06-2016 06:05:00 7.6 C 95 % 6.85 C
75 20-06-2016 06:10:00 7.7 C 95 % 6.95 C
Sensor: Nr:Datum:Temp:Feuchte:Taupunkt:
Aussen-T/F 76 20-06-2016 06:15:00 7.7 C 95 % 6.95 C
77 20-06-2016 06:20:00 7.7 C 95 % 6.95 C
78 20-06-2016 06:25:00 7.7 C 95 % 6.95 C
79 20-06-2016 06:30:00 7.8 C 95 % 7.05 C
80 20-06-2016 06:35:00 7.9 C 95 % 7.15 C
81 20-06-2016 06:40:00 8.1 C 95 % 7.35 C
82 20-06-2016 06:45:00 8.1 C 96 % 7.5 C
83 20-06-2016 06:50:00 8.2 C 96 % 7.6 C
84 20-06-2016 06:55:00 8.2 C 96 % 7.6 C
85 20-06-2016 07:00:00 8.2 C 96 % 7.6 C
86 20-06-2016 07:05:00 8.3 C 96 % 7.7 C
87 20-06-2016 07:10:00 8.4 C 96 % 7.8 C
88 20-06-2016 07:15:00 8.4 C 96 % 7.8 C
89 20-06-2016 07:20:00 8.4 C 96 % 7.8 C
90 20-06-2016 07:25:00 8.4 C 96 % 7.8 C
91 20-06-2016 07:30:00 8.5 C 96 % 7.9 C
92 20-06-2016 07:35:00 8.5 C 96 % 7.9 C
93 20-06-2016 07:40:00 8.6 C 96 % 8 C
94 20-06-2016 07:45:00 8.7 C 96 % 8.1 C
95 20-06-2016 07:50:00 8.8 C 96 % 8.2 C
96 20-06-2016 07:55:00 8.8 C 96 % 8.2 C
97 20-06-2016 08:00:00 8.9 C 96 % 8.3 C
98 20-06-2016 08:05:00 9.1 C 96 % 8.5 C
99 20-06-2016 08:10:00 9.2 C 96 % 8.6 C
100 20-06-2016 08:15:00 9.3 C 96 % 8.7 C
Sensor: Nr:Datum:Temp:Feuchte:Taupunkt:
Aussen-T/F 101 20-06-2016 08:20:00 9.4 C 96 % 8.8 C
102 20-06-2016 08:25:00 9.5 C 96 % 8.89 C
103 20-06-2016 08:30:00 9.7 C 96 % 9.09 C
104 20-06-2016 08:35:00 9.8 C 96 % 9.19 C
105 20-06-2016 08:40:00 10 C 96 % 9.39 C
106 20-06-2016 08:45:00 10.1 C 96 % 9.49 C
107 20-06-2016 08:50:00 10.3 C 96 % 9.69 C
108 20-06-2016 08:55:00 10.5 C 96 % 9.89 C
109 20-06-2016 09:00:00 10.7 C 96 % 10.09 C
110 20-06-2016 09:05:00 10.9 C 96 % 10.29 C
111 20-06-2016 09:10:00 11.2 C 95 % 10.43 C
112 20-06-2016 09:15:00 11.5 C 95 % 10.73 C
113 20-06-2016 09:20:00 11.8 C 93 % 10.71 C
114 20-06-2016 09:25:00 12.2 C 91 % 10.78 C
115 20-06-2016 09:30:00 12.5 C 91 % 11.07 C
116 20-06-2016 09:35:00 12.7 C 89 % 10.94 C
117 20-06-2016 09:40:00 13 C 90 % 11.4 C
118 20-06-2016 09:45:00 13.1 C 91 % 11.67 C
119 20-06-2016 09:50:00 13.2 C 91 % 11.76 C
120 20-06-2016 09:55:00 13.2 C 91 % 11.76 C
121 20-06-2016 10:00:00 13.3 C 91 % 11.86 C
122 20-06-2016 10:05:00 13.4 C 90 % 11.79 C
123 20-06-2016 10:10:00 13.7 C 90 % 12.09 C
124 20-06-2016 10:15:00 14 C 89 % 12.22 C
125 20-06-2016 10:20:00 14.6 C 88 % 12.64 C
Sensor: Nr:Datum:Temp:Feuchte:Taupunkt:
Aussen-T/F 126 20-06-2016 10:25:00 15.2 C 85 % 12.7 C
127 20-06-2016 10:30:00 15.9 C 78 % 12.07 C
128 20-06-2016 10:35:00 16.8 C 74 % 12.14 C
129 20-06-2016 10:40:00 17.4 C 66 % 10.99 C
130 20-06-2016 10:45:00 17.7 C 66 % 11.27 C
131 20-06-2016 10:50:00 17.9 C 69 % 12.14 C
132 20-06-2016 10:55:00 18.1 C 69 % 12.33 C
133 20-06-2016 11:00:00 18.2 C 63 % 11.05 C
134 20-06-2016 11:05:00 18.2 C 62 % 10.81 C
135 20-06-2016 11:10:00 18.2 C 62 % 10.81 C
136 20-06-2016 11:15:00 18.2 C 61 % 10.56 C
137 20-06-2016 11:20:00 18.3 C 59 % 10.16 C
138 20-06-2016 11:25:00 18.3 C 62 % 10.9 C
139 20-06-2016 11:30:00 18.4 C 60 % 10.5 C
140 20-06-2016 11:35:00 18.4 C 59 % 10.25 C
141 20-06-2016 11:40:00 18.6 C 58 % 10.18 C
142 20-06-2016 11:45:00 18.7 C 59 % 10.53 C
143 20-06-2016 11:50:00 18.8 C 57 % 10.11 C
144 20-06-2016 11:55:00 18.8 C 56 % 9.84 C
145 20-06-2016 12:00:00 18.7 C 59 % 10.53 C
146 20-06-2016 12:05:00 18.8 C 59 % 10.63 C
147 20-06-2016 12:10:00 18.9 C 61 % 11.22 C
148 20-06-2016 12:15:00 19.1 C 58 % 10.65 C
149 20-06-2016 12:20:00 19.2 C 60 % 11.25 C
150 20-06-2016 12:25:00 19.3 C 59 % 11.09 C
Sensor: Nr:Datum:Temp:Feuchte:Taupunkt:
Aussen-T/F 151 20-06-2016 12:30:00 19.6 C 61 % 11.88 C
152 20-06-2016 12:35:00 19.7 C 58 % 11.21 C
153 20-06-2016 12:40:00 19.8 C 58 % 11.3 C
154 20-06-2016 12:45:00 19.9 C 59 % 11.66 C
155 20-06-2016 12:50:00 20.1 C 59 % 11.84 C
156 20-06-2016 12:55:00 20.2 C 59 % 11.94 C
157 20-06-2016 13:00:00 20.3 C 59 % 12.03 C
158 20-06-2016 13:05:00 20.4 C 60 % 12.38 C
159 20-06-2016 13:10:00 20.5 C 57 % 11.7 C
160 20-06-2016 13:15:00 20.6 C 57 % 11.79 C
161 20-06-2016 13:20:00 20.7 C 55 % 11.34 C
162 20-06-2016 13:25:00 21 C 57 % 12.16 C
163 20-06-2016 13:30:00 21.2 C 55 % 11.81 C
164 20-06-2016 13:35:00 21.3 C 56 % 12.17 C
165 20-06-2016 13:40:00 21.3 C 60 % 13.22 C
166 20-06-2016 13:45:00 21.3 C 55 % 11.9 C
167 20-06-2016 13:50:00 21.2 C 58 % 12.61 C
168 20-06-2016 13:55:00 21.4 C 58 % 12.8 C
169 20-06-2016 14:00:00 21.6 C 56 % 12.45 C
170 20-06-2016 14:05:00 21.8 C 60 % 13.69 C
171 20-06-2016 14:10:00 21.8 C 56 % 12.64 C
172 20-06-2016 14:15:00 21.8 C 56 % 12.64 C
173 20-06-2016 14:20:00 21.9 C 56 % 12.73 C
174 20-06-2016 14:25:00 22.1 C 57 % 13.19 C
175 20-06-2016 14:30:00 22.2 C 55 % 12.73 C
Sensor: Nr:Datum:Temp:Feuchte:Taupunkt:
Aussen-T/F 176 20-06-2016 14:35:00 22.2 C 56 % 13.01 C
177 20-06-2016 14:40:00 22.4 C 55 % 12.92 C
178 20-06-2016 14:45:00 22.4 C 54 % 12.64 C
179 20-06-2016 14:50:00 22.4 C 54 % 12.64 C
180 20-06-2016 14:55:00 22.3 C 55 % 12.83 C
181 20-06-2016 15:00:00 22.3 C 56 % 13.1 C
182 20-06-2016 15:05:00 22.3 C 53 % 12.26 C
183 20-06-2016 15:10:00 22.3 C 56 % 13.1 C
184 20-06-2016 15:15:00 22.3 C 55 % 12.83 C
185 20-06-2016 15:20:00 22.3 C 55 % 12.83 C
186 20-06-2016 15:25:00 22.4 C 59 % 14 C
187 20-06-2016 15:30:00 22.4 C 56 % 13.2 C
188 20-06-2016 15:35:00 22.3 C 58 % 13.64 C
189 20-06-2016 15:40:00 22.2 C 56 % 13.01 C
190 20-06-2016 15:45:00 22.2 C 55 % 12.73 C
191 20-06-2016 15:50:00 22.3 C 65 % 15.4 C
192 20-06-2016 15:55:00 22.3 C 56 % 13.1 C
193 20-06-2016 16:00:00 22.3 C 58 % 13.64 C
194 20-06-2016 16:05:00 22.3 C 56 % 13.1 C
195 20-06-2016 16:10:00 22.3 C 56 % 13.1 C
196 20-06-2016 16:15:00 22.1 C 57 % 13.19 C
197 20-06-2016 16:20:00 22 C 62 % 14.39 C
198 20-06-2016 16:25:00 21.8 C 59 % 13.44 C
199 20-06-2016 16:30:00 21.7 C 62 % 14.1 C
200 20-06-2016 16:35:00 21.6 C 66 % 14.98 C
Sensor: Nr:Datum:Temp:Feuchte:Taupunkt:
Aussen-T/F 201 20-06-2016 16:40:00 21.4 C 61 % 13.57 C
202 20-06-2016 16:45:00 21.3 C 62 % 13.73 C
203 20-06-2016 16:50:00 21.3 C 63 % 13.97 C
204 20-06-2016 16:55:00 21.3 C 63 % 13.97 C
205 20-06-2016 17:00:00 21.4 C 65 % 14.55 C
206 20-06-2016 17:05:00 21.5 C 62 % 13.92 C
207 20-06-2016 17:10:00 21.7 C 63 % 14.35 C
208 20-06-2016 17:15:00 21.9 C 65 % 15.02 C
209 20-06-2016 17:20:00 21.9 C 62 % 14.29 C
210 20-06-2016 17:25:00 21.9 C 61 % 14.04 C
211 20-06-2016 17:30:00 21.9 C 64 % 14.78 C
212 20-06-2016 17:35:00 21.9 C 59 % 13.53 C
213 20-06-2016 17:40:00 21.8 C 62 % 14.2 C
214 20-06-2016 17:45:00 21.8 C 63 % 14.45 C
215 20-06-2016 17:50:00 21.7 C 61 % 13.85 C
216 20-06-2016 17:55:00 21.4 C 61 % 13.57 C
217 20-06-2016 18:00:00 21.3 C 63 % 13.97 C
218 20-06-2016 18:05:00 21.2 C 60 % 13.13 C
219 20-06-2016 18:10:00 21.1 C 66 % 14.5 C
220 20-06-2016 18:15:00 20.9 C 65 % 14.08 C
221 20-06-2016 18:20:00 20.7 C 70 % 15.03 C
222 20-06-2016 18:25:00 20.4 C 71 % 14.97 C
223 20-06-2016 18:30:00 20.2 C 73 % 15.21 C
224 20-06-2016 18:35:00 19.8 C 75 % 15.24 C
225 20-06-2016 18:40:00 19.4 C 77 % 15.27 C
Sensor: Nr:Datum:Temp:Feuchte:Taupunkt:
Aussen-T/F 226 20-06-2016 18:45:00 19 C 81 % 15.67 C
227 20-06-2016 18:50:00 18.4 C 83 % 15.46 C
228 20-06-2016 18:55:00 18.1 C 83 % 15.17 C
229 20-06-2016 19:00:00 17.7 C 85 % 15.15 C
230 20-06-2016 19:05:00 17.4 C 87 % 15.21 C
231 20-06-2016 19:10:00 17.2 C 87 % 15.02 C
232 20-06-2016 19:15:00 17.1 C 88 % 15.1 C
233 20-06-2016 19:20:00 16.9 C 89 % 15.08 C
234 20-06-2016 19:25:00 16.7 C 90 % 15.05 C
235 20-06-2016 19:30:00 16.6 C 90 % 14.95 C
236 20-06-2016 19:35:00 16.5 C 91 % 15.03 C
237 20-06-2016 19:40:00 16.4 C 91 % 14.93 C
238 20-06-2016 19:45:00 16.3 C 92 % 15 C
239 20-06-2016 19:50:00 16.3 C 92 % 15 C
240 20-06-2016 19:55:00 16.2 C 92 % 14.9 C
241 20-06-2016 20:00:00 16.2 C 92 % 14.9 C
242 20-06-2016 20:05:00 16.1 C 92 % 14.8 C
243 20-06-2016 20:10:00 16.1 C 92 % 14.8 C
244 20-06-2016 20:15:00 16 C 92 % 14.7 C
245 20-06-2016 20:20:00 15.9 C 93 % 14.77 C
246 20-06-2016 20:25:00 15.9 C 93 % 14.77 C
247 20-06-2016 20:30:00 15.8 C 93 % 14.67 C
248 20-06-2016 20:35:00 15.7 C 93 % 14.57 C
249 20-06-2016 20:40:00 15.6 C 93 % 14.47 C
250 20-06-2016 20:45:00 15.5 C 93 % 14.37 C
Sensor: Nr:Datum:Temp:Feuchte:Taupunkt:
Aussen-T/F 251 20-06-2016 20:50:00 15.4 C 93 % 14.27 C
252 20-06-2016 20:55:00 15.3 C 94 % 14.34 C
253 20-06-2016 21:00:00 15.2 C 94 % 14.24 C
254 20-06-2016 21:05:00 15.2 C 94 % 14.24 C
255 20-06-2016 21:10:00 15.1 C 94 % 14.14 C
256 20-06-2016 21:15:00 15.1 C 94 % 14.14 C
257 20-06-2016 21:20:00 15.1 C 94 % 14.14 C
258 20-06-2016 21:25:00 15 C 94 % 14.04 C
259 20-06-2016 21:30:00 15 C 94 % 14.04 C
260 20-06-2016 21:35:00 15 C 94 % 14.04 C
261 20-06-2016 21:40:00 15 C 94 % 14.04 C
262 20-06-2016 21:45:00 15 C 95 % 14.21 C
263 20-06-2016 21:50:00 14.9 C 95 % 14.11 C
264 20-06-2016 21:55:00 14.9 C 95 % 14.11 C
265 20-06-2016 22:00:00 14.9 C 95 % 14.11 C
266 20-06-2016 22:05:00 14.9 C 95 % 14.11 C
267 20-06-2016 22:10:00 14.9 C 95 % 14.11 C
268 20-06-2016 22:15:00 14.8 C 95 % 14.01 C
269 20-06-2016 22:20:00 14.8 C 95 % 14.01 C
270 20-06-2016 22:25:00 14.8 C 95 % 14.01 C
271 20-06-2016 22:30:00 14.8 C 95 % 14.01 C
272 20-06-2016 22:35:00 14.8 C 95 % 14.01 C
273 20-06-2016 22:40:00 14.8 C 95 % 14.01 C
274 20-06-2016 22:45:00 14.8 C 95 % 14.01 C
275 20-06-2016 22:50:00 14.8 C 95 % 14.01 C
Sensor: Nr:Datum:Temp:Feuchte:Taupunkt:
Aussen-T/F 276 20-06-2016 22:55:00 14.8 C 95 % 14.01 C
277 20-06-2016 23:00:00 14.8 C 95 % 14.01 C
278 20-06-2016 23:05:00 14.8 C 95 % 14.01 C
279 20-06-2016 23:10:00 14.8 C 95 % 14.01 C
280 20-06-2016 23:15:00 14.8 C 95 % 14.01 C
281 20-06-2016 23:20:00 14.8 C 95 % 14.01 C
282 20-06-2016 23:25:00 14.8 C 95 % 14.01 C
283 20-06-2016 23:30:00 14.8 C 96 % 14.17 C
284 20-06-2016 23:35:00 14.8 C 96 % 14.17 C
285 20-06-2016 23:40:00 14.8 C 96 % 14.17 C
286 20-06-2016 23:45:00 14.8 C 96 % 14.17 C
287 20-06-2016 23:50:00 14.8 C 96 % 14.17 C
288 20-06-2016 23:55:00 14.8 C 96 % 14.17 C
289 21-06-2016 00:00:00 14.9 C 96 % 14.27 C
290 21-06-2016 00:05:00 14.9 C 96 % 14.27 C
291 21-06-2016 00:10:00 14.9 C 96 % 14.27 C
292 21-06-2016 00:15:00 15 C 96 % 14.37 C
293 21-06-2016 00:20:00 15 C 96 % 14.37 C
294 21-06-2016 00:25:00 15.1 C 96 % 14.47 C
295 21-06-2016 00:30:00 15.1 C 96 % 14.47 C
296 21-06-2016 00:35:00 15.2 C 96 % 14.57 C
297 21-06-2016 00:40:00 15.2 C 95 % 14.4 C
298 21-06-2016 00:45:00 15.2 C 95 % 14.4 C
299 21-06-2016 00:50:00 15.2 C 95 % 14.4 C
300 21-06-2016 00:55:00 15.2 C 95 % 14.4 C
Sensor: Nr:Datum:Temp:Feuchte:Taupunkt:
Aussen-T/F 301 21-06-2016 01:00:00 15.2 C 95 % 14.4 C
302 21-06-2016 01:05:00 15.2 C 95 % 14.4 C
303 21-06-2016 01:10:00 15.2 C 95 % 14.4 C
304 21-06-2016 01:15:00 15.3 C 95 % 14.5 C
305 21-06-2016 01:20:00 15.3 C 95 % 14.5 C
306 21-06-2016 01:25:00 15.3 C 95 % 14.5 C
307 21-06-2016 01:30:00 15.3 C 95 % 14.5 C
308 21-06-2016 01:35:00 15.3 C 95 % 14.5 C
309 21-06-2016 01:40:00 15.3 C 95 % 14.5 C
310 21-06-2016 01:45:00 15.3 C 95 % 14.5 C
311 21-06-2016 01:50:00 15.3 C 95 % 14.5 C
312 21-06-2016 01:55:00 15.3 C 95 % 14.5 C
313 21-06-2016 02:00:00 15.3 C 95 % 14.5 C
314 21-06-2016 02:05:00 15.3 C 95 % 14.5 C
315 21-06-2016 02:10:00 15.3 C 95 % 14.5 C
316 21-06-2016 02:15:00 15.2 C 95 % 14.4 C
317 21-06-2016 02:20:00 15.2 C 95 % 14.4 C
318 21-06-2016 02:25:00 15.3 C 95 % 14.5 C
319 21-06-2016 02:30:00 15.3 C 95 % 14.5 C
320 21-06-2016 02:35:00 15.3 C 95 % 14.5 C
321 21-06-2016 02:40:00 15.2 C 95 % 14.4 C
322 21-06-2016 02:45:00 15.2 C 96 % 14.57 C
323 21-06-2016 02:50:00 15.2 C 96 % 14.57 C
324 21-06-2016 02:55:00 15.2 C 96 % 14.57 C
325 21-06-2016 03:00:00 15.2 C 96 % 14.57 C
Sensor: Nr:Datum:Temp:Feuchte:Taupunkt:
Aussen-T/F 326 21-06-2016 03:05:00 15.2 C 96 % 14.57 C
327 21-06-2016 03:10:00 15.2 C 96 % 14.57 C
328 21-06-2016 03:15:00 15.2 C 96 % 14.57 C
329 21-06-2016 03:20:00 15.2 C 96 % 14.57 C
330 21-06-2016 03:25:00 15.2 C 96 % 14.57 C
331 21-06-2016 03:30:00 15.2 C 96 % 14.57 C
332 21-06-2016 03:35:00 15.2 C 96 % 14.57 C
333 21-06-2016 03:40:00 15.2 C 96 % 14.57 C
334 21-06-2016 03:45:00 15.2 C 96 % 14.57 C
335 21-06-2016 03:50:00 15.2 C 96 % 14.57 C
336 21-06-2016 03:55:00 15.2 C 96 % 14.57 C
337 21-06-2016 04:00:00 15.2 C 96 % 14.57 C
338 21-06-2016 04:05:00 15.2 C 96 % 14.57 C
339 21-06-2016 04:10:00 15.2 C 96 % 14.57 C
340 21-06-2016 04:15:00 15.2 C 96 % 14.57 C
341 21-06-2016 04:20:00 15.2 C 96 % 14.57 C
342 21-06-2016 04:25:00 15.2 C 96 % 14.57 C
343 21-06-2016 04:30:00 15.2 C 96 % 14.57 C
344 21-06-2016 04:35:00 15.2 C 96 % 14.57 C
345 21-06-2016 04:40:00 15.2 C 96 % 14.57 C
346 21-06-2016 04:45:00 15.2 C 96 % 14.57 C
347 21-06-2016 04:50:00 15.2 C 96 % 14.57 C
348 21-06-2016 04:55:00 15.2 C 96 % 14.57 C
349 21-06-2016 05:00:00 15.2 C 96 % 14.57 C
350 21-06-2016 05:05:00 15.2 C 96 % 14.57 C
Sensor: Nr:Datum:Temp:Feuchte:Taupunkt:
Aussen-T/F 351 21-06-2016 05:10:00 15.2 C 96 % 14.57 C
352 21-06-2016 05:15:00 15.2 C 96 % 14.57 C
353 21-06-2016 05:20:00 15.2 C 96 % 14.57 C
354 21-06-2016 05:25:00 15.2 C 96 % 14.57 C
355 21-06-2016 05:30:00 15.1 C 96 % 14.47 C
356 21-06-2016 05:35:00 15.1 C 96 % 14.47 C
357 21-06-2016 05:40:00 15.1 C 96 % 14.47 C
358 21-06-2016 05:45:00 15.1 C 96 % 14.47 C
359 21-06-2016 05:50:00 15.1 C 96 % 14.47 C
360 21-06-2016 05:55:00 15.1 C 96 % 14.47 C
361 21-06-2016 06:00:00 15.1 C 97 % 14.63 C
362 21-06-2016 06:05:00 15.2 C 97 % 14.73 C
363 21-06-2016 06:10:00 15.1 C 96 % 14.47 C
364 21-06-2016 06:15:00 15.1 C 96 % 14.47 C
365 21-06-2016 06:20:00 15 C 96 % 14.37 C
366 21-06-2016 06:25:00 15 C 96 % 14.37 C
367 21-06-2016 06:30:00 15 C 96 % 14.37 C
368 21-06-2016 06:35:00 14.9 C 96 % 14.27 C
369 21-06-2016 06:40:00 14.9 C 96 % 14.27 C
370 21-06-2016 06:45:00 14.9 C 96 % 14.27 C
371 21-06-2016 06:50:00 14.9 C 96 % 14.27 C
372 21-06-2016 06:55:00 14.8 C 96 % 14.17 C
373 21-06-2016 07:00:00 14.8 C 96 % 14.17 C
374 21-06-2016 07:05:00 14.7 C 96 % 14.07 C
375 21-06-2016 07:10:00 14.8 C 96 % 14.17 C
Sensor: Nr:Datum:Temp:Feuchte:Taupunkt:
Aussen-T/F 376 21-06-2016 07:15:00 14.9 C 97 % 14.43 C
377 21-06-2016 07:20:00 15.2 C 97 % 14.73 C
378 21-06-2016 07:25:00 15.4 C 97 % 14.93 C
379 21-06-2016 07:30:00 15.6 C 97 % 15.13 C
380 21-06-2016 07:35:00 15.8 C 97 % 15.32 C
381 21-06-2016 07:40:00 15.9 C 97 % 15.42 C
382 21-06-2016 07:45:00 16 C 97 % 15.52 C
383 21-06-2016 07:50:00 16.1 C 97 % 15.62 C
384 21-06-2016 07:55:00 16.2 C 97 % 15.72 C
385 21-06-2016 08:00:00 16.1 C 97 % 15.62 C
386 21-06-2016 08:05:00 16.2 C 97 % 15.72 C
387 21-06-2016 08:10:00 16.3 C 97 % 15.82 C
388 21-06-2016 08:15:00 16.3 C 96 % 15.66 C
389 21-06-2016 08:20:00 16.3 C 96 % 15.66 C
390 21-06-2016 08:25:00 16.4 C 95 % 15.6 C
391 21-06-2016 08:30:00 16.6 C 95 % 15.8 C
392 21-06-2016 08:35:00 16.7 C 94 % 15.73 C
393 21-06-2016 08:40:00 16.9 C 93 % 15.76 C
394 21-06-2016 08:45:00 17.1 C 93 % 15.96 C
395 21-06-2016 08:50:00 17.2 C 92 % 15.89 C
396 21-06-2016 08:55:00 17.3 C 91 % 15.82 C
397 21-06-2016 09:00:00 17.3 C 91 % 15.82 C
398 21-06-2016 09:05:00 17.3 C 90 % 15.64 C
399 21-06-2016 09:10:00 17.4 C 91 % 15.92 C
400 21-06-2016 09:15:00 17.6 C 91 % 16.11 C
Sensor: Nr:Datum:Temp:Feuchte:Taupunkt:
Aussen-T/F 401 21-06-2016 09:20:00 17.6 C 90 % 15.94 C
402 21-06-2016 09:25:00 17.6 C 89 % 15.77 C
403 21-06-2016 09:30:00 17.7 C 89 % 15.86 C
404 21-06-2016 09:35:00 17.8 C 90 % 16.14 C
405 21-06-2016 09:40:00 17.9 C 89 % 16.06 C
406 21-06-2016 09:45:00 18.1 C 89 % 16.26 C
407 21-06-2016 09:50:00 18.2 C 87 % 16 C
408 21-06-2016 09:55:00 18.2 C 87 % 16 C
409 21-06-2016 10:00:00 18.2 C 87 % 16 C
410 21-06-2016 10:05:00 18.3 C 88 % 16.28 C
411 21-06-2016 10:10:00 18.3 C 87 % 16.1 C
412 21-06-2016 10:15:00 18.4 C 87 % 16.2 C
413 21-06-2016 10:20:00 18.4 C 86 % 16.02 C
414 21-06-2016 10:25:00 18.4 C 85 % 15.83 C
415 21-06-2016 10:30:00 18.3 C 86 % 15.92 C
416 21-06-2016 10:35:00 18.4 C 88 % 16.38 C
417 21-06-2016 10:40:00 18.6 C 85 % 16.03 C
418 21-06-2016 10:45:00 18.6 C 83 % 15.66 C
419 21-06-2016 10:50:00 18.7 C 84 % 15.94 C
420 21-06-2016 10:55:00 18.9 C 83 % 15.95 C
421 21-06-2016 11:00:00 19.2 C 83 % 16.24 C
422 21-06-2016 11:05:00 19.4 C 81 % 16.06 C
423 21-06-2016 11:10:00 19.6 C 80 % 16.06 C
424 21-06-2016 11:15:00 19.6 C 81 % 16.25 C
425 21-06-2016 11:20:00 19.7 C 82 % 16.54 C
Sensor: Nr:Datum:Temp:Feuchte:Taupunkt:
Aussen-T/F 426 21-06-2016 11:25:00 19.6 C 81 % 16.25 C
427 21-06-2016 11:30:00 19.6 C 81 % 16.25 C
428 21-06-2016 11:35:00 19.5 C 82 % 16.35 C
429 21-06-2016 11:40:00 19.4 C 83 % 16.44 C
430 21-06-2016 11:45:00 19.4 C 82 % 16.25 C
431 21-06-2016 11:50:00 19.6 C 82 % 16.44 C
432 21-06-2016 11:55:00 19.7 C 82 % 16.54 C
433 21-06-2016 12:00:00 19.8 C 84 % 17.02 C
434 21-06-2016 12:05:00 19.9 C 79 % 16.15 C
435 21-06-2016 12:10:00 20.1 C 80 % 16.54 C
436 21-06-2016 12:15:00 20.1 C 78 % 16.14 C
437 21-06-2016 12:20:00 20.2 C 79 % 16.44 C
438 21-06-2016 12:25:00 20.4 C 80 % 16.83 C
439 21-06-2016 12:30:00 20.4 C 77 % 16.23 C
440 21-06-2016 12:35:00 20.5 C 78 % 16.53 C
441 21-06-2016 12:40:00 20.6 C 78 % 16.63 C
442 21-06-2016 12:45:00 20.8 C 78 % 16.82 C
443 21-06-2016 12:50:00 20.9 C 78 % 16.92 C
444 21-06-2016 12:55:00 21 C 77 % 16.81 C
445 21-06-2016 13:00:00 21 C 78 % 17.02 C
446 21-06-2016 13:05:00 21 C 77 % 16.81 C
447 21-06-2016 13:10:00 21 C 77 % 16.81 C
448 21-06-2016 13:15:00 21.1 C 76 % 16.7 C
449 21-06-2016 13:20:00 21.1 C 77 % 16.91 C
450 21-06-2016 13:25:00 21.1 C 76 % 16.7 C
Sensor: Nr:Datum:Temp:Feuchte:Taupunkt:
Aussen-T/F 451 21-06-2016 13:30:00 21.2 C 76 % 16.8 C
452 21-06-2016 13:35:00 21.2 C 77 % 17.01 C
453 21-06-2016 13:40:00 21.3 C 76 % 16.9 C
454 21-06-2016 13:45:00 21.3 C 75 % 16.69 C
455 21-06-2016 13:50:00 21.2 C 75 % 16.59 C
456 21-06-2016 13:55:00 21.2 C 77 % 17.01 C
457 21-06-2016 14:00:00 21.3 C 76 % 16.9 C
458 21-06-2016 14:05:00 21.3 C 74 % 16.48 C
459 21-06-2016 14:10:00 21.4 C 75 % 16.79 C
460 21-06-2016 14:15:00 21.7 C 72 % 16.43 C
461 21-06-2016 14:20:00 21.8 C 73 % 16.75 C
462 21-06-2016 14:25:00 21.8 C 73 % 16.75 C
463 21-06-2016 14:30:00 21.9 C 73 % 16.84 C
464 21-06-2016 14:35:00 22.2 C 73 % 17.13 C
465 21-06-2016 14:40:00 22.3 C 71 % 16.79 C
466 21-06-2016 14:45:00 22.6 C 71 % 17.07 C
467 21-06-2016 14:50:00 22.7 C 69 % 16.72 C
468 21-06-2016 14:55:00 22.8 C 70 % 17.04 C
469 21-06-2016 15:00:00 22.9 C 72 % 17.58 C
470 21-06-2016 15:05:00 23.1 C 69 % 17.1 C
471 21-06-2016 15:10:00 23.1 C 69 % 17.1 C
472 21-06-2016 15:15:00 23.1 C 68 % 16.87 C
473 21-06-2016 15:20:00 23.1 C 70 % 17.33 C
474 21-06-2016 15:25:00 23.1 C 69 % 17.1 C
475 21-06-2016 15:30:00 23.2 C 69 % 17.2 C
Sensor: Nr:Datum:Temp:Feuchte:Taupunkt:
Aussen-T/F 476 21-06-2016 15:35:00 23.2 C 70 % 17.42 C
477 21-06-2016 15:40:00 23.4 C 69 % 17.39 C
478 21-06-2016 15:45:00 23.6 C 69 % 17.58 C
479 21-06-2016 15:50:00 23.6 C 67 % 17.11 C
480 21-06-2016 15:55:00 23.5 C 68 % 17.25 C
481 21-06-2016 16:00:00 23.4 C 69 % 17.39 C
482 21-06-2016 16:05:00 23.4 C 75 % 18.71 C
483 21-06-2016 16:10:00 23.3 C 76 % 18.83 C
484 21-06-2016 16:15:00 23.1 C 75 % 18.43 C
485 21-06-2016 16:20:00 22.9 C 78 % 18.86 C
486 21-06-2016 16:25:00 22.8 C 79 % 18.97 C
487 21-06-2016 16:30:00 22.7 C 80 % 19.07 C
488 21-06-2016 16:35:00 22.6 C 80 % 18.97 C
489 21-06-2016 16:40:00 22.6 C 78 % 18.57 C
490 21-06-2016 16:45:00 22.6 C 80 % 18.97 C
491 21-06-2016 16:50:00 22.6 C 78 % 18.57 C
492 21-06-2016 16:55:00 22.7 C 77 % 18.46 C
493 21-06-2016 17:00:00 23 C 74 % 18.12 C
494 21-06-2016 17:05:00 23.1 C 71 % 17.55 C
495 21-06-2016 17:10:00 23.2 C 73 % 18.09 C
496 21-06-2016 17:15:00 23.3 C 74 % 18.4 C
497 21-06-2016 17:20:00 23.2 C 77 % 18.94 C
498 21-06-2016 17:25:00 23.1 C 77 % 18.85 C
499 21-06-2016 17:30:00 22.9 C 78 % 18.86 C
500 21-06-2016 17:35:00 22.8 C 79 % 18.97 C
Sensor: Nr:Datum:Temp:Feuchte:Taupunkt:
Aussen-T/F 501 21-06-2016 17:40:00 22.5 C 80 % 18.88 C
502 21-06-2016 17:45:00 22.2 C 81 % 18.78 C
503 21-06-2016 17:50:00 21.9 C 82 % 18.69 C
504 21-06-2016 17:55:00 21.7 C 83 % 18.69 C
505 21-06-2016 18:00:00 21.5 C 83 % 18.49 C
506 21-06-2016 18:05:00 21.2 C 83 % 18.2 C
507 21-06-2016 18:10:00 21 C 84 % 18.19 C
508 21-06-2016 18:15:00 20.7 C 85 % 18.09 C
509 21-06-2016 18:20:00 20.3 C 85 % 17.7 C
510 21-06-2016 18:25:00 20.1 C 86 % 17.68 C
511 21-06-2016 18:30:00 19.9 C 88 % 17.85 C
512 21-06-2016 18:35:00 19.9 C 89 % 18.03 C
513 21-06-2016 18:40:00 19.8 C 89 % 17.93 C
514 21-06-2016 18:45:00 19.8 C 90 % 18.11 C
515 21-06-2016 18:50:00 19.8 C 90 % 18.11 C
516 21-06-2016 18:55:00 19.8 C 90 % 18.11 C
517 21-06-2016 19:00:00 19.7 C 90 % 18.01 C
518 21-06-2016 19:05:00 19.7 C 90 % 18.01 C
519 21-06-2016 19:10:00 19.6 C 90 % 17.91 C
520 21-06-2016 19:15:00 19.6 C 91 % 18.09 C
521 21-06-2016 19:20:00 19.6 C 91 % 18.09 C
522 21-06-2016 19:25:00 19.5 C 91 % 17.99 C
523 21-06-2016 19:30:00 19.4 C 91 % 17.89 C
524 21-06-2016 19:35:00 19.4 C 91 % 17.89 C
525 21-06-2016 19:40:00 19.3 C 91 % 17.79 C
Sensor: Nr:Datum:Temp:Feuchte:Taupunkt:
Aussen-T/F 526 21-06-2016 19:45:00 19.3 C 91 % 17.79 C
527 21-06-2016 19:50:00 19.2 C 92 % 17.87 C
528 21-06-2016 19:55:00 19.2 C 92 % 17.87 C
529 21-06-2016 20:00:00 19.1 C 92 % 17.77 C
530 21-06-2016 20:05:00 19.1 C 92 % 17.77 C
531 21-06-2016 20:10:00 18.9 C 92 % 17.57 C
532 21-06-2016 20:15:00 18.8 C 92 % 17.47 C
533 21-06-2016 20:20:00 18.7 C 92 % 17.37 C
534 21-06-2016 20:25:00 18.6 C 92 % 17.27 C
535 21-06-2016 20:30:00 18.5 C 92 % 17.18 C
536 21-06-2016 20:35:00 18.4 C 93 % 17.25 C
537 21-06-2016 20:40:00 18.3 C 93 % 17.15 C
538 21-06-2016 20:45:00 18.2 C 93 % 17.05 C
539 21-06-2016 20:50:00 18.2 C 93 % 17.05 C
540 21-06-2016 20:55:00 18.1 C 93 % 16.95 C
541 21-06-2016 21:00:00 18.1 C 93 % 16.95 C
542 21-06-2016 21:05:00 18 C 93 % 16.85 C
543 21-06-2016 21:10:00 17.9 C 93 % 16.75 C
544 21-06-2016 21:15:00 17.9 C 94 % 16.92 C
545 21-06-2016 21:20:00 17.9 C 94 % 16.92 C
546 21-06-2016 21:25:00 17.8 C 94 % 16.82 C
547 21-06-2016 21:30:00 17.8 C 94 % 16.82 C
548 21-06-2016 21:35:00 17.8 C 94 % 16.82 C
549 21-06-2016 21:40:00 17.7 C 94 % 16.72 C
550 21-06-2016 21:45:00 17.7 C 94 % 16.72 C
Sensor: Nr:Datum:Temp:Feuchte:Taupunkt:
Aussen-T/F 551 21-06-2016 21:50:00 17.7 C 94 % 16.72 C
552 21-06-2016 21:55:00 17.6 C 94 % 16.62 C
553 21-06-2016 22:00:00 17.6 C 94 % 16.62 C
554 21-06-2016 22:05:00 17.6 C 94 % 16.62 C
555 21-06-2016 22:10:00 17.6 C 95 % 16.79 C
556 21-06-2016 22:15:00 17.6 C 95 % 16.79 C
557 21-06-2016 22:20:00 17.6 C 95 % 16.79 C
558 21-06-2016 22:25:00 17.6 C 95 % 16.79 C
559 21-06-2016 22:30:00 17.5 C 95 % 16.69 C
560 21-06-2016 22:35:00 17.4 C 95 % 16.59 C
561 21-06-2016 22:40:00 17.4 C 95 % 16.59 C
562 21-06-2016 22:45:00 17.4 C 95 % 16.59 C
563 21-06-2016 22:50:00 17.4 C 95 % 16.59 C
564 21-06-2016 22:55:00 17.4 C 95 % 16.59 C
565 21-06-2016 23:00:00 17.3 C 95 % 16.49 C
566 21-06-2016 23:05:00 17.3 C 95 % 16.49 C
567 21-06-2016 23:10:00 17.3 C 95 % 16.49 C
568 21-06-2016 23:15:00 17.3 C 95 % 16.49 C
569 21-06-2016 23:20:00 17.2 C 95 % 16.39 C
570 21-06-2016 23:25:00 17.2 C 95 % 16.39 C
571 21-06-2016 23:30:00 17.2 C 95 % 16.39 C
572 21-06-2016 23:35:00 17.2 C 95 % 16.39 C
573 21-06-2016 23:40:00 17.2 C 95 % 16.39 C
574 21-06-2016 23:45:00 17.2 C 95 % 16.39 C
575 21-06-2016 23:50:00 17.2 C 95 % 16.39 C
Sensor: Nr:Datum:Temp:Feuchte:Taupunkt:
Aussen-T/F 576 21-06-2016 23:55:00 17.1 C 95 % 16.29 C
577 22-06-2016 00:00:00 17.1 C 95 % 16.29 C
578 22-06-2016 00:05:00 17.1 C 95 % 16.29 C
579 22-06-2016 00:10:00 17.1 C 95 % 16.29 C
580 22-06-2016 00:15:00 17.1 C 95 % 16.29 C
581 22-06-2016 00:20:00 17.1 C 95 % 16.29 C
582 22-06-2016 00:25:00 17 C 95 % 16.19 C
583 22-06-2016 00:30:00 17 C 95 % 16.19 C
584 22-06-2016 00:35:00 17 C 96 % 16.36 C
585 22-06-2016 00:40:00 17 C 95 % 16.19 C
586 22-06-2016 00:45:00 17 C 96 % 16.36 C
587 22-06-2016 00:50:00 17 C 96 % 16.36 C
588 22-06-2016 00:55:00 17 C 96 % 16.36 C
589 22-06-2016 01:00:00 17 C 96 % 16.36 C
590 22-06-2016 01:05:00 17 C 96 % 16.36 C
591 22-06-2016 01:10:00 17 C 96 % 16.36 C
592 22-06-2016 01:15:00 16.9 C 96 % 16.26 C
593 22-06-2016 01:20:00 16.9 C 96 % 16.26 C
594 22-06-2016 01:25:00 16.9 C 96 % 16.26 C
595 22-06-2016 01:30:00 16.9 C 96 % 16.26 C
596 22-06-2016 01:35:00 16.9 C 96 % 16.26 C
597 22-06-2016 01:40:00 16.9 C 96 % 16.26 C
598 22-06-2016 01:45:00 16.9 C 96 % 16.26 C
599 22-06-2016 01:50:00 16.9 C 96 % 16.26 C
600 22-06-2016 01:55:00 16.9 C 96 % 16.26 C
Sensor: Nr:Datum:Temp:Feuchte:Taupunkt:
Aussen-T/F 601 22-06-2016 02:00:00 17 C 96 % 16.36 C
602 22-06-2016 02:05:00 17.1 C 96 % 16.46 C
603 22-06-2016 02:10:00 17.1 C 96 % 16.46 C
604 22-06-2016 02:15:00 17.1 C 96 % 16.46 C
605 22-06-2016 02:20:00 17.1 C 96 % 16.46 C
606 22-06-2016 02:25:00 17.1 C 96 % 16.46 C
607 22-06-2016 02:30:00 17.1 C 96 % 16.46 C
608 22-06-2016 02:35:00 17.1 C 96 % 16.46 C
609 22-06-2016 02:40:00 17.1 C 96 % 16.46 C
610 22-06-2016 02:45:00 17.1 C 96 % 16.46 C
611 22-06-2016 02:50:00 17.1 C 96 % 16.46 C
612 22-06-2016 02:55:00 17 C 96 % 16.36 C
613 22-06-2016 03:00:00 17 C 96 % 16.36 C
614 22-06-2016 03:05:00 17 C 96 % 16.36 C
615 22-06-2016 03:10:00 16.9 C 96 % 16.26 C
616 22-06-2016 03:15:00 16.9 C 96 % 16.26 C
617 22-06-2016 03:20:00 16.9 C 96 % 16.26 C
618 22-06-2016 03:25:00 16.9 C 96 % 16.26 C
619 22-06-2016 03:30:00 16.9 C 96 % 16.26 C
620 22-06-2016 03:35:00 16.9 C 96 % 16.26 C
621 22-06-2016 03:40:00 16.9 C 96 % 16.26 C
622 22-06-2016 03:45:00 16.9 C 96 % 16.26 C
623 22-06-2016 03:50:00 16.9 C 96 % 16.26 C
624 22-06-2016 03:55:00 16.9 C 96 % 16.26 C
625 22-06-2016 04:00:00 16.9 C 96 % 16.26 C
Sensor: Nr:Datum:Temp:Feuchte:Taupunkt:
Aussen-T/F 626 22-06-2016 04:05:00 16.9 C 96 % 16.26 C
627 22-06-2016 04:10:00 16.9 C 96 % 16.26 C
628 22-06-2016 04:15:00 16.8 C 96 % 16.16 C
629 22-06-2016 04:20:00 16.8 C 96 % 16.16 C
630 22-06-2016 04:25:00 16.8 C 96 % 16.16 C
631 22-06-2016 04:30:00 16.8 C 96 % 16.16 C
632 22-06-2016 04:35:00 16.8 C 96 % 16.16 C
633 22-06-2016 04:40:00 16.8 C 96 % 16.16 C
634 22-06-2016 04:45:00 16.8 C 96 % 16.16 C
635 22-06-2016 04:50:00 16.9 C 96 % 16.26 C
636 22-06-2016 04:55:00 16.8 C 96 % 16.16 C
637 22-06-2016 05:00:00 16.8 C 96 % 16.16 C
638 22-06-2016 05:05:00 16.8 C 96 % 16.16 C
639 22-06-2016 05:10:00 16.8 C 96 % 16.16 C
640 22-06-2016 05:15:00 16.7 C 96 % 16.06 C
641 22-06-2016 05:20:00 16.7 C 96 % 16.06 C
642 22-06-2016 05:25:00 16.7 C 96 % 16.06 C
643 22-06-2016 05:30:00 16.7 C 96 % 16.06 C
644 22-06-2016 05:35:00 16.7 C 96 % 16.06 C
645 22-06-2016 05:40:00 16.7 C 97 % 16.22 C
646 22-06-2016 05:45:00 16.7 C 97 % 16.22 C
647 22-06-2016 05:50:00 16.7 C 97 % 16.22 C
648 22-06-2016 05:55:00 16.7 C 97 % 16.22 C
649 22-06-2016 06:00:00 16.7 C 97 % 16.22 C
650 22-06-2016 06:05:00 16.8 C 97 % 16.32 C
Sensor: Nr:Datum:Temp:Feuchte:Taupunkt:
Aussen-T/F 651 22-06-2016 06:10:00 16.8 C 97 % 16.32 C
652 22-06-2016 06:15:00 16.9 C 97 % 16.42 C
653 22-06-2016 06:20:00 17 C 97 % 16.52 C
654 22-06-2016 06:25:00 17.1 C 97 % 16.62 C
655 22-06-2016 06:30:00 17.1 C 97 % 16.62 C
656 22-06-2016 06:35:00 17.2 C 97 % 16.72 C
657 22-06-2016 06:40:00 17.2 C 97 % 16.72 C
658 22-06-2016 06:45:00 17.2 C 97 % 16.72 C
659 22-06-2016 06:50:00 17.3 C 97 % 16.82 C
660 22-06-2016 06:55:00 17.3 C 97 % 16.82 C
661 22-06-2016 07:00:00 17.4 C 97 % 16.92 C
662 22-06-2016 07:05:00 17.5 C 97 % 17.02 C
663 22-06-2016 07:10:00 17.6 C 97 % 17.12 C
664 22-06-2016 07:15:00 17.7 C 97 % 17.22 C
665 22-06-2016 07:20:00 17.7 C 97 % 17.22 C
666 22-06-2016 07:25:00 17.8 C 97 % 17.32 C
667 22-06-2016 07:30:00 17.8 C 97 % 17.32 C
668 22-06-2016 07:35:00 17.7 C 97 % 17.22 C
669 22-06-2016 07:40:00 17.7 C 97 % 17.22 C
670 22-06-2016 07:45:00 17.7 C 97 % 17.22 C
671 22-06-2016 07:50:00 17.7 C 97 % 17.22 C
672 22-06-2016 07:55:00 17.8 C 97 % 17.32 C
673 22-06-2016 08:00:00 18 C 97 % 17.52 C
674 22-06-2016 08:05:00 18.2 C 97 % 17.72 C
675 22-06-2016 08:10:00 18.3 C 97 % 17.82 C
Sensor: Nr:Datum:Temp:Feuchte:Taupunkt:
Aussen-T/F 676 22-06-2016 08:15:00 18.3 C 97 % 17.82 C
677 22-06-2016 08:20:00 18.3 C 97 % 17.82 C
678 22-06-2016 08:25:00 18.5 C 97 % 18.01 C
679 22-06-2016 08:30:00 18.7 C 97 % 18.21 C
680 22-06-2016 08:35:00 18.7 C 97 % 18.21 C
681 22-06-2016 08:40:00 18.7 C 96 % 18.05 C
682 22-06-2016 08:45:00 18.7 C 96 % 18.05 C
683 22-06-2016 08:50:00 18.9 C 95 % 18.08 C
684 22-06-2016 08:55:00 19.1 C 95 % 18.28 C
685 22-06-2016 09:00:00 19.3 C 95 % 18.48 C
686 22-06-2016 09:05:00 19.4 C 94 % 18.41 C
687 22-06-2016 09:10:00 19.4 C 93 % 18.24 C
688 22-06-2016 09:15:00 19.6 C 93 % 18.44 C
689 22-06-2016 09:20:00 19.7 C 92 % 18.36 C
690 22-06-2016 09:25:00 19.8 C 92 % 18.46 C
691 22-06-2016 09:30:00 19.9 C 91 % 18.39 C
692 22-06-2016 09:35:00 20 C 91 % 18.49 C
693 22-06-2016 09:40:00 20.2 C 91 % 18.68 C
694 22-06-2016 09:45:00 20.3 C 90 % 18.61 C
695 22-06-2016 09:50:00 20.3 C 88 % 18.25 C
696 22-06-2016 09:55:00 20.4 C 89 % 18.53 C
697 22-06-2016 10:00:00 20.6 C 88 % 18.54 C
698 22-06-2016 10:05:00 20.6 C 88 % 18.54 C
699 22-06-2016 10:10:00 20.7 C 88 % 18.64 C
700 22-06-2016 10:15:00 20.7 C 87 % 18.46 C
Sensor: Nr:Datum:Temp:Feuchte:Taupunkt:
Aussen-T/F 701 22-06-2016 10:20:00 20.8 C 86 % 18.37 C
702 22-06-2016 10:25:00 20.9 C 86 % 18.47 C
703 22-06-2016 10:30:00 21.1 C 87 % 18.85 C
704 22-06-2016 10:35:00 21.2 C 85 % 18.58 C
705 22-06-2016 10:40:00 21.3 C 85 % 18.67 C
706 22-06-2016 10:45:00 21.3 C 85 % 18.67 C
707 22-06-2016 10:50:00 21.4 C 86 % 18.96 C
708 22-06-2016 10:55:00 21.6 C 84 % 18.78 C
709 22-06-2016 11:00:00 21.7 C 84 % 18.88 C
710 22-06-2016 11:05:00 21.8 C 83 % 18.78 C
711 22-06-2016 11:10:00 21.8 C 84 % 18.97 C
712 22-06-2016 11:15:00 21.8 C 82 % 18.59 C
713 22-06-2016 11:20:00 21.9 C 82 % 18.69 C
714 22-06-2016 11:25:00 22.1 C 85 % 19.46 C
715 22-06-2016 11:30:00 22.1 C 82 % 18.88 C
716 22-06-2016 11:35:00 22.2 C 84 % 19.37 C
717 22-06-2016 11:40:00 22.3 C 82 % 19.08 C
718 22-06-2016 11:45:00 22.4 C 82 % 19.17 C
719 22-06-2016 11:50:00 22.5 C 79 % 18.67 C
720 22-06-2016 11:55:00 22.6 C 79 % 18.77 C
721 22-06-2016 12:00:00 22.6 C 81 % 19.17 C
722 22-06-2016 12:05:00 22.7 C 81 % 19.27 C
723 22-06-2016 12:10:00 22.7 C 79 % 18.87 C
724 22-06-2016 12:15:00 22.8 C 79 % 18.97 C
725 22-06-2016 12:20:00 22.9 C 79 % 19.06 C
Sensor: Nr:Datum:Temp:Feuchte:Taupunkt:
Aussen-T/F 726 22-06-2016 12:25:00 23 C 82 % 19.76 C
727 22-06-2016 12:30:00 23.1 C 84 % 20.25 C
728 22-06-2016 12:35:00 23 C 85 % 20.34 C
729 22-06-2016 12:40:00 22.8 C 86 % 20.33 C
730 22-06-2016 12:45:00 22.6 C 86 % 20.14 C
731 22-06-2016 12:50:00 22.6 C 87 % 20.32 C
732 22-06-2016 12:55:00 22.6 C 87 % 20.32 C
733 22-06-2016 13:00:00 22.6 C 87 % 20.32 C
734 22-06-2016 13:05:00 22.6 C 87 % 20.32 C
735 22-06-2016 13:10:00 22.7 C 88 % 20.61 C
736 22-06-2016 13:15:00 22.8 C 82 % 19.56 C
737 22-06-2016 13:20:00 23.2 C 81 % 19.76 C
738 22-06-2016 13:25:00 23.5 C 82 % 20.25 C
739 22-06-2016 13:30:00 23.6 C 84 % 20.74 C
740 22-06-2016 13:35:00 23.6 C 84 % 20.74 C
741 22-06-2016 13:40:00 23.6 C 84 % 20.74 C
742 22-06-2016 13:45:00 23.6 C 84 % 20.74 C
743 22-06-2016 13:50:00 23.5 C 85 % 20.83 C
744 22-06-2016 13:55:00 23.4 C 85 % 20.73 C
745 22-06-2016 14:00:00 23.3 C 85 % 20.63 C
746 22-06-2016 14:05:00 23.4 C 85 % 20.73 C
747 22-06-2016 14:10:00 23.4 C 85 % 20.73 C
748 22-06-2016 14:15:00 23.5 C 84 % 20.64 C
749 22-06-2016 14:20:00 23.7 C 82 % 20.44 C
750 22-06-2016 14:25:00 23.8 C 80 % 20.14 C
Sensor: Nr:Datum:Temp:Feuchte:Taupunkt:
Aussen-T/F 751 22-06-2016 14:30:00 24.1 C 81 % 20.63 C
752 22-06-2016 14:35:00 24.2 C 75 % 19.49 C
753 22-06-2016 14:40:00 24.4 C 80 % 20.72 C
754 22-06-2016 14:45:00 24.5 C 76 % 19.99 C
755 22-06-2016 14:50:00 24.7 C 79 % 20.81 C
756 22-06-2016 14:55:00 24.8 C 74 % 19.85 C
757 22-06-2016 15:00:00 24.8 C 71 % 19.18 C
758 22-06-2016 15:05:00 25 C 73 % 19.82 C
759 22-06-2016 15:10:00 25.1 C 73 % 19.92 C
760 22-06-2016 15:15:00 25.1 C 77 % 20.78 C
761 22-06-2016 15:20:00 25.1 C 73 % 19.92 C
762 22-06-2016 15:25:00 25.2 C 77 % 20.88 C
763 22-06-2016 15:30:00 25.1 C 79 % 21.2 C
764 22-06-2016 15:35:00 25.1 C 79 % 21.2 C
765 22-06-2016 15:40:00 24.9 C 77 % 20.59 C
766 22-06-2016 15:45:00 24.8 C 78 % 20.7 C
767 22-06-2016 15:50:00 24.8 C 78 % 20.7 C
768 22-06-2016 15:55:00 24.9 C 79 % 21 C
769 22-06-2016 16:00:00 24.9 C 79 % 21 C
770 22-06-2016 16:05:00 25 C 77 % 20.68 C
771 22-06-2016 16:10:00 25 C 76 % 20.47 C
772 22-06-2016 16:15:00 25 C 78 % 20.89 C
773 22-06-2016 16:20:00 25 C 79 % 21.1 C
774 22-06-2016 16:25:00 24.9 C 80 % 21.21 C
775 22-06-2016 16:30:00 24.9 C 80 % 21.21 C
Sensor: Nr:Datum:Temp:Feuchte:Taupunkt:
Aussen-T/F 776 22-06-2016 16:35:00 24.9 C 79 % 21 C
777 22-06-2016 16:40:00 24.9 C 75 % 20.16 C
778 22-06-2016 16:45:00 25.1 C 81 % 21.61 C
779 22-06-2016 16:50:00 25.3 C 80 % 21.6 C
780 22-06-2016 16:55:00 25.4 C 81 % 21.9 C
781 22-06-2016 17:00:00 25.5 C 79 % 21.59 C
782 22-06-2016 17:05:00 25.5 C 79 % 21.59 C
783 22-06-2016 17:10:00 25.5 C 80 % 21.79 C
784 22-06-2016 17:15:00 25.4 C 80 % 21.7 C
785 22-06-2016 17:20:00 25.4 C 81 % 21.9 C
786 22-06-2016 17:25:00 25.3 C 80 % 21.6 C
787 22-06-2016 17:30:00 25.3 C 79 % 21.39 C
788 22-06-2016 17:35:00 25.3 C 80 % 21.6 C
789 22-06-2016 17:40:00 25.3 C 81 % 21.8 C
790 22-06-2016 17:45:00 25.2 C 79 % 21.3 C
791 22-06-2016 17:50:00 25.2 C 81 % 21.7 C
792 22-06-2016 17:55:00 25.2 C 81 % 21.7 C
793 22-06-2016 18:00:00 25.2 C 81 % 21.7 C
794 22-06-2016 18:05:00 25.2 C 81 % 21.7 C
795 22-06-2016 18:10:00 25.2 C 80 % 21.5 C
796 22-06-2016 18:15:00 25.2 C 81 % 21.7 C
797 22-06-2016 18:20:00 25.2 C 79 % 21.3 C
798 22-06-2016 18:25:00 25.2 C 80 % 21.5 C
799 22-06-2016 18:30:00 25.2 C 80 % 21.5 C
800 22-06-2016 18:35:00 25.2 C 80 % 21.5 C
Sensor: Nr:Datum:Temp:Feuchte:Taupunkt:
Aussen-T/F 801 22-06-2016 18:40:00 25.2 C 82 % 21.91 C
802 22-06-2016 18:45:00 25.3 C 80 % 21.6 C
803 22-06-2016 18:50:00 25.6 C 74 % 20.62 C
804 22-06-2016 18:55:00 25.9 C 79 % 21.97 C
805 22-06-2016 19:00:00 26.1 C 79 % 22.17 C
806 22-06-2016 19:05:00 26.2 C 78 % 22.06 C
807 22-06-2016 19:10:00 26.2 C 77 % 21.84 C
808 22-06-2016 19:15:00 26.2 C 74 % 21.2 C
809 22-06-2016 19:20:00 26.4 C 68 % 20.01 C
810 22-06-2016 19:25:00 26.5 C 66 % 19.63 C
811 22-06-2016 19:30:00 26.6 C 74 % 21.58 C
812 22-06-2016 19:35:00 26.4 C 74 % 21.39 C
813 22-06-2016 19:40:00 26.2 C 75 % 21.41 C
814 22-06-2016 19:45:00 25.9 C 75 % 21.13 C
815 22-06-2016 19:50:00 25.6 C 76 % 21.05 C
816 22-06-2016 19:55:00 25.2 C 77 % 20.88 C
817 22-06-2016 20:00:00 24.8 C 78 % 20.7 C
818 22-06-2016 20:05:00 24.6 C 80 % 20.92 C
819 22-06-2016 20:10:00 24.7 C 81 % 21.22 C
820 22-06-2016 20:15:00 24.8 C 80 % 21.11 C
821 22-06-2016 20:20:00 25 C 79 % 21.1 C
822 22-06-2016 20:25:00 25.1 C 78 % 20.99 C
823 22-06-2016 20:30:00 25.2 C 78 % 21.09 C
824 22-06-2016 20:35:00 25.2 C 77 % 20.88 C
825 22-06-2016 20:40:00 25.1 C 77 % 20.78 C
Sensor: Nr:Datum:Temp:Feuchte:Taupunkt:
Aussen-T/F 826 22-06-2016 20:45:00 24.9 C 77 % 20.59 C
827 22-06-2016 20:50:00 24.6 C 77 % 20.3 C
828 22-06-2016 20:55:00 24.2 C 78 % 20.12 C
829 22-06-2016 21:00:00 23.8 C 80 % 20.14 C
830 22-06-2016 21:05:00 23.4 C 81 % 19.95 C
831 22-06-2016 21:10:00 23 C 82 % 19.76 C
832 22-06-2016 21:15:00 22.7 C 83 % 19.66 C
833 22-06-2016 21:20:00 22.4 C 84 % 19.56 C
834 22-06-2016 21:25:00 22.1 C 84 % 19.27 C
835 22-06-2016 21:30:00 21.8 C 85 % 19.16 C
836 22-06-2016 21:35:00 21.5 C 86 % 19.06 C
837 22-06-2016 21:40:00 21.2 C 86 % 18.76 C
838 22-06-2016 21:45:00 21 C 87 % 18.75 C
839 22-06-2016 21:50:00 20.8 C 88 % 18.74 C
840 22-06-2016 21:55:00 20.7 C 88 % 18.64 C
841 22-06-2016 22:00:00 20.5 C 88 % 18.44 C
842 22-06-2016 22:05:00 20.4 C 89 % 18.53 C
843 22-06-2016 22:10:00 20.3 C 89 % 18.43 C
844 22-06-2016 22:15:00 20.3 C 89 % 18.43 C
845 22-06-2016 22:20:00 20.2 C 90 % 18.51 C
846 22-06-2016 22:25:00 20.2 C 90 % 18.51 C
847 22-06-2016 22:30:00 20.1 C 90 % 18.41 C
848 22-06-2016 22:35:00 20.1 C 90 % 18.41 C
849 22-06-2016 22:40:00 19.8 C 90 % 18.11 C
850 22-06-2016 22:45:00 19.8 C 90 % 18.11 C
Sensor: Nr:Datum:Temp:Feuchte:Taupunkt:
Aussen-T/F 851 22-06-2016 22:50:00 19.7 C 91 % 18.19 C
852 22-06-2016 22:55:00 19.6 C 91 % 18.09 C
853 22-06-2016 23:00:00 19.4 C 91 % 17.89 C
854 22-06-2016 23:05:00 19.3 C 91 % 17.79 C
855 22-06-2016 23:10:00 19.3 C 92 % 17.97 C
856 22-06-2016 23:15:00 19.2 C 92 % 17.87 C
857 22-06-2016 23:20:00 19.1 C 92 % 17.77 C
858 22-06-2016 23:25:00 18.9 C 92 % 17.57 C
859 22-06-2016 23:30:00 18.8 C 92 % 17.47 C
860 22-06-2016 23:35:00 18.7 C 92 % 17.37 C
861 22-06-2016 23:40:00 18.5 C 92 % 17.18 C
862 22-06-2016 23:45:00 18.4 C 93 % 17.25 C
863 22-06-2016 23:50:00 18.3 C 93 % 17.15 C
864 22-06-2016 23:55:00 18.3 C 93 % 17.15 C
865 23-06-2016 00:00:00 18.3 C 94 % 17.32 C
866 23-06-2016 00:05:00 18.3 C 94 % 17.32 C
867 23-06-2016 00:10:00 18.1 C 93 % 16.95 C
868 23-06-2016 00:15:00 17.9 C 93 % 16.75 C
869 23-06-2016 00:20:00 17.8 C 93 % 16.65 C
870 23-06-2016 00:25:00 17.8 C 94 % 16.82 C
871 23-06-2016 00:30:00 17.7 C 94 % 16.72 C
872 23-06-2016 00:35:00 17.6 C 94 % 16.62 C
873 23-06-2016 00:40:00 17.6 C 94 % 16.62 C
874 23-06-2016 00:45:00 17.5 C 94 % 16.52 C
875 23-06-2016 00:50:00 17.5 C 94 % 16.52 C
Sensor: Nr:Datum:Temp:Feuchte:Taupunkt:
Aussen-T/F 876 23-06-2016 00:55:00 17.6 C 95 % 16.79 C
877 23-06-2016 01:00:00 17.6 C 95 % 16.79 C
878 23-06-2016 01:05:00 17.5 C 95 % 16.69 C
879 23-06-2016 01:10:00 17.4 C 94 % 16.42 C
880 23-06-2016 01:15:00 17.3 C 94 % 16.33 C
881 23-06-2016 01:20:00 17.2 C 94 % 16.23 C
882 23-06-2016 01:25:00 17.2 C 95 % 16.39 C
883 23-06-2016 01:30:00 17.3 C 95 % 16.49 C
884 23-06-2016 01:35:00 17.3 C 95 % 16.49 C
885 23-06-2016 01:40:00 17.2 C 95 % 16.39 C
886 23-06-2016 01:45:00 17 C 95 % 16.19 C
887 23-06-2016 01:50:00 16.9 C 95 % 16.09 C
888 23-06-2016 01:55:00 16.8 C 95 % 15.99 C
889 23-06-2016 02:00:00 16.8 C 95 % 15.99 C
890 23-06-2016 02:05:00 16.8 C 95 % 15.99 C
891 23-06-2016 02:10:00 16.8 C 95 % 15.99 C
892 23-06-2016 02:15:00 16.7 C 95 % 15.9 C
893 23-06-2016 02:20:00 16.7 C 95 % 15.9 C
894 23-06-2016 02:25:00 16.6 C 95 % 15.8 C
895 23-06-2016 02:30:00 16.6 C 95 % 15.8 C
896 23-06-2016 02:35:00 16.6 C 95 % 15.8 C
897 23-06-2016 02:40:00 16.7 C 96 % 16.06 C
898 23-06-2016 02:45:00 16.7 C 95 % 15.9 C
899 23-06-2016 02:50:00 16.6 C 95 % 15.8 C
900 23-06-2016 02:55:00 16.4 C 95 % 15.6 C
Sensor: Nr:Datum:Temp:Feuchte:Taupunkt:
Aussen-T/F 901 23-06-2016 03:00:00 16.3 C 95 % 15.5 C
902 23-06-2016 03:05:00 16.2 C 95 % 15.4 C
903 23-06-2016 03:10:00 16.2 C 95 % 15.4 C
904 23-06-2016 03:15:00 16.2 C 95 % 15.4 C
905 23-06-2016 03:20:00 16.1 C 96 % 15.46 C
906 23-06-2016 03:25:00 16.1 C 96 % 15.46 C
907 23-06-2016 03:30:00 16.1 C 95 % 15.3 C
908 23-06-2016 03:35:00 16.1 C 95 % 15.3 C
909 23-06-2016 03:40:00 16 C 95 % 15.2 C
910 23-06-2016 03:45:00 15.9 C 96 % 15.26 C
911 23-06-2016 03:50:00 15.8 C 96 % 15.16 C
912 23-06-2016 03:55:00 15.8 C 96 % 15.16 C
913 23-06-2016 04:00:00 15.8 C 96 % 15.16 C
914 23-06-2016 04:05:00 15.8 C 96 % 15.16 C
915 23-06-2016 04:10:00 15.9 C 96 % 15.26 C
916 23-06-2016 04:15:00 15.9 C 96 % 15.26 C
917 23-06-2016 04:20:00 15.7 C 96 % 15.06 C
918 23-06-2016 04:25:00 15.7 C 96 % 15.06 C
919 23-06-2016 04:30:00 15.6 C 96 % 14.96 C
920 23-06-2016 04:35:00 15.5 C 96 % 14.86 C
921 23-06-2016 04:40:00 15.4 C 96 % 14.77 C
922 23-06-2016 04:45:00 15.3 C 96 % 14.67 C
923 23-06-2016 04:50:00 15.3 C 96 % 14.67 C
924 23-06-2016 04:55:00 15.4 C 96 % 14.77 C
925 23-06-2016 05:00:00 15.4 C 96 % 14.77 C
Sensor: Nr:Datum:Temp:Feuchte:Taupunkt:
Aussen-T/F 926 23-06-2016 05:05:00 15.4 C 96 % 14.77 C
927 23-06-2016 05:10:00 15.3 C 96 % 14.67 C
928 23-06-2016 05:15:00 15.3 C 96 % 14.67 C
929 23-06-2016 05:20:00 15.3 C 96 % 14.67 C
930 23-06-2016 05:25:00 15.2 C 96 % 14.57 C
931 23-06-2016 05:30:00 15.2 C 96 % 14.57 C
932 23-06-2016 05:35:00 15.2 C 96 % 14.57 C
933 23-06-2016 05:40:00 15.3 C 96 % 14.67 C
934 23-06-2016 05:45:00 15.3 C 96 % 14.67 C
935 23-06-2016 05:50:00 15.3 C 96 % 14.67 C
936 23-06-2016 05:55:00 15.3 C 96 % 14.67 C
937 23-06-2016 06:00:00 15.4 C 96 % 14.77 C
938 23-06-2016 06:05:00 15.4 C 96 % 14.77 C
939 23-06-2016 06:10:00 15.5 C 97 % 15.03 C
940 23-06-2016 06:15:00 15.6 C 97 % 15.13 C
941 23-06-2016 06:20:00 15.7 C 97 % 15.23 C
942 23-06-2016 06:25:00 15.7 C 97 % 15.23 C
943 23-06-2016 06:30:00 15.8 C 97 % 15.32 C
944 23-06-2016 06:35:00 15.8 C 97 % 15.32 C
945 23-06-2016 06:40:00 15.9 C 97 % 15.42 C
946 23-06-2016 06:45:00 15.9 C 97 % 15.42 C
947 23-06-2016 06:50:00 16.1 C 97 % 15.62 C
948 23-06-2016 06:55:00 16.1 C 97 % 15.62 C
949 23-06-2016 07:00:00 16.1 C 97 % 15.62 C
950 23-06-2016 07:05:00 16.2 C 97 % 15.72 C
Sensor: Nr:Datum:Temp:Feuchte:Taupunkt:
Aussen-T/F 951 23-06-2016 07:10:00 16.3 C 97 % 15.82 C
952 23-06-2016 07:15:00 16.3 C 97 % 15.82 C
953 23-06-2016 07:20:00 16.3 C 97 % 15.82 C
954 23-06-2016 07:25:00 16.4 C 97 % 15.92 C
955 23-06-2016 07:30:00 16.4 C 97 % 15.92 C
956 23-06-2016 07:35:00 16.4 C 97 % 15.92 C
957 23-06-2016 07:40:00 16.5 C 97 % 16.02 C
958 23-06-2016 07:45:00 16.6 C 97 % 16.12 C
959 23-06-2016 07:50:00 16.6 C 97 % 16.12 C
960 23-06-2016 07:55:00 16.7 C 97 % 16.22 C
961 23-06-2016 08:00:00 16.8 C 97 % 16.32 C
962 23-06-2016 08:05:00 16.8 C 97 % 16.32 C
963 23-06-2016 08:10:00 16.8 C 97 % 16.32 C
964 23-06-2016 08:15:00 16.8 C 97 % 16.32 C
965 23-06-2016 08:20:00 16.9 C 97 % 16.42 C
966 23-06-2016 08:25:00 16.9 C 97 % 16.42 C
967 23-06-2016 08:30:00 17.1 C 97 % 16.62 C
968 23-06-2016 08:35:00 17.2 C 97 % 16.72 C
969 23-06-2016 08:40:00 17.3 C 97 % 16.82 C
970 23-06-2016 08:45:00 17.4 C 97 % 16.92 C
971 23-06-2016 08:50:00 17.4 C 97 % 16.92 C
972 23-06-2016 08:55:00 17.5 C 97 % 17.02 C
973 23-06-2016 09:00:00 17.6 C 97 % 17.12 C
974 23-06-2016 09:05:00 17.7 C 97 % 17.22 C
975 23-06-2016 09:10:00 17.8 C 97 % 17.32 C
Sensor: Nr:Datum:Temp:Feuchte:Taupunkt:
Aussen-T/F 976 23-06-2016 09:15:00 17.9 C 97 % 17.42 C
977 23-06-2016 09:20:00 18.2 C 97 % 17.72 C
978 23-06-2016 09:25:00 18.3 C 97 % 17.82 C
979 23-06-2016 09:30:00 18.3 C 97 % 17.82 C
980 23-06-2016 09:35:00 18.6 C 97 % 18.11 C
981 23-06-2016 09:40:00 18.7 C 97 % 18.21 C
982 23-06-2016 09:45:00 18.9 C 97 % 18.41 C
983 23-06-2016 09:50:00 19.2 C 97 % 18.71 C
984 23-06-2016 09:55:00 19.4 C 97 % 18.91 C
985 23-06-2016 10:00:00 19.6 C 97 % 19.11 C
986 23-06-2016 10:05:00 19.7 C 97 % 19.21 C
987 23-06-2016 10:10:00 19.9 C 97 % 19.41 C
988 23-06-2016 10:15:00 20.2 C 97 % 19.71 C
989 23-06-2016 10:20:00 20.6 C 97 % 20.11 C
990 23-06-2016 10:25:00 21.1 C 97 % 20.6 C
991 23-06-2016 10:30:00 21.4 C 97 % 20.9 C
992 23-06-2016 10:35:00 21.9 C 96 % 21.23 C
993 23-06-2016 10:40:00 22.4 C 94 % 21.39 C
994 23-06-2016 10:45:00 22.9 C 92 % 21.53 C
995 23-06-2016 10:50:00 23.3 C 89 % 21.38 C
996 23-06-2016 10:55:00 23.7 C 85 % 21.03 C
997 23-06-2016 11:00:00 24.2 C 84 % 21.32 C
998 23-06-2016 11:05:00 24.5 C 84 % 21.62 C
999 23-06-2016 11:10:00 24.4 C 84 % 21.52 C
1000 23-06-2016 11:15:00 24.4 C 85 % 21.71 C
Sensor: Nr:Datum:Temp:Feuchte:Taupunkt:
Aussen-T/F 1001 23-06-2016 11:20:00 24.5 C 84 % 21.62 C
1002 23-06-2016 11:25:00 24.7 C 82 % 21.42 C
1003 23-06-2016 11:30:00 24.9 C 84 % 22.01 C
1004 23-06-2016 11:35:00 25.1 C 83 % 22.01 C
1005 23-06-2016 11:40:00 25.1 C 81 % 21.61 C
1006 23-06-2016 11:45:00 25.3 C 84 % 22.4 C
1007 23-06-2016 11:50:00 25.4 C 81 % 21.9 C
1008 23-06-2016 11:55:00 25.6 C 80 % 21.89 C
1009 23-06-2016 12:00:00 25.8 C 78 % 21.67 C
1010 23-06-2016 12:05:00 26.1 C 78 % 21.96 C
1011 23-06-2016 12:10:00 26.4 C 78 % 22.25 C
1012 23-06-2016 12:15:00 26.7 C 76 % 22.11 C
1013 23-06-2016 12:20:00 26.8 C 75 % 21.99 C
1014 23-06-2016 12:25:00 27.1 C 76 % 22.5 C
1015 23-06-2016 12:30:00 27.3 C 75 % 22.47 C
1016 23-06-2016 12:35:00 27.4 C 75 % 22.57 C
1017 23-06-2016 12:40:00 27.4 C 76 % 22.79 C
1018 23-06-2016 12:45:00 27.6 C 72 % 22.09 C
1019 23-06-2016 12:50:00 27.7 C 72 % 22.19 C
1020 23-06-2016 12:55:00 27.9 C 74 % 22.83 C
1021 23-06-2016 13:00:00 28.1 C 71 % 22.34 C
1022 23-06-2016 13:05:00 28.3 C 74 % 23.22 C
1023 23-06-2016 13:10:00 28.3 C 71 % 22.53 C
1024 23-06-2016 13:15:00 28.3 C 76 % 23.66 C
1025 23-06-2016 13:20:00 28.2 C 74 % 23.12 C
Sensor: Nr:Datum:Temp:Feuchte:Taupunkt:
Aussen-T/F 1026 23-06-2016 13:25:00 28.2 C 70 % 22.2 C
1027 23-06-2016 13:30:00 28.3 C 72 % 22.76 C
1028 23-06-2016 13:35:00 28.6 C 69 % 22.35 C
1029 23-06-2016 13:40:00 28.8 C 70 % 22.78 C
1030 23-06-2016 13:45:00 29 C 69 % 22.73 C
1031 23-06-2016 13:50:00 29.1 C 68 % 22.58 C
1032 23-06-2016 13:55:00 29.2 C 69 % 22.92 C
1033 23-06-2016 14:00:00 29.4 C 69 % 23.11 C
1034 23-06-2016 14:05:00 29.6 C 66 % 22.57 C
1035 23-06-2016 14:10:00 29.8 C 66 % 22.76 C
1036 23-06-2016 14:15:00 30 C 66 % 22.95 C
1037 23-06-2016 14:20:00 30.2 C 63 % 22.37 C
1038 23-06-2016 14:25:00 30.3 C 63 % 22.46 C
1039 23-06-2016 14:30:00 30.3 C 68 % 23.73 C
1040 23-06-2016 14:35:00 30.2 C 68 % 23.63 C
1041 23-06-2016 14:40:00 30.2 C 65 % 22.88 C
1042 23-06-2016 14:45:00 30.3 C 65 % 22.98 C
1043 23-06-2016 14:50:00 30.6 C 62 % 22.48 C
1044 23-06-2016 14:55:00 30.7 C 63 % 22.84 C
1045 23-06-2016 15:00:00 30.8 C 63 % 22.93 C
1046 23-06-2016 15:05:00 30.9 C 65 % 23.55 C
1047 23-06-2016 15:10:00 31 C 63 % 23.12 C
1048 23-06-2016 15:15:00 31.2 C 63 % 23.31 C
1049 23-06-2016 15:20:00 31.2 C 64 % 23.57 C
1050 23-06-2016 15:25:00 31.3 C 62 % 23.14 C
Sensor: Nr:Datum:Temp:Feuchte:Taupunkt:
Aussen-T/F 1051 23-06-2016 15:30:00 31.6 C 64 % 23.95 C
1052 23-06-2016 15:35:00 31.7 C 59 % 22.7 C
1053 23-06-2016 15:40:00 31.8 C 64 % 24.14 C
1054 23-06-2016 15:45:00 32.2 C 64 % 24.52 C
1055 23-06-2016 15:50:00 32.4 C 57 % 22.78 C
1056 23-06-2016 15:55:00 32.8 C 58 % 23.44 C
1057 23-06-2016 16:00:00 33.2 C 57 % 23.52 C
1058 23-06-2016 16:05:00 33.6 C 56 % 23.6 C
1059 23-06-2016 16:10:00 33.6 C 54 % 23 C
1060 23-06-2016 16:15:00 33.4 C 55 % 23.12 C
1061 23-06-2016 16:20:00 33.6 C 55 % 23.3 C
1062 23-06-2016 16:25:00 33.9 C 56 % 23.88 C
1063 23-06-2016 16:30:00 34.2 C 56 % 24.16 C
1064 23-06-2016 16:35:00 34.2 C 58 % 24.74 C
1065 23-06-2016 16:40:00 34.2 C 55 % 23.86 C
1066 23-06-2016 16:45:00 34.3 C 54 % 23.64 C
1067 23-06-2016 16:50:00 34.3 C 58 % 24.84 C
1068 23-06-2016 16:55:00 34.3 C 59 % 25.12 C
1069 23-06-2016 17:00:00 34.4 C 57 % 24.64 C
1070 23-06-2016 17:05:00 34.7 C 58 % 25.21 C
1071 23-06-2016 17:10:00 34.8 C 54 % 24.11 C
1072 23-06-2016 17:15:00 34.6 C 55 % 24.23 C
1073 23-06-2016 17:20:00 34.6 C 53 % 23.61 C
1074 23-06-2016 17:25:00 34.6 C 54 % 23.92 C
1075 23-06-2016 17:30:00 34.7 C 56 % 24.62 C
Sensor: Nr:Datum:Temp:Feuchte:Taupunkt:
Aussen-T/F 1076 23-06-2016 17:35:00 34.7 C 53 % 23.7 C
1077 23-06-2016 17:40:00 34.7 C 54 % 24.01 C
1078 23-06-2016 17:45:00 34.7 C 52 % 23.39 C
1079 23-06-2016 17:50:00 34.8 C 51 % 23.16 C
1080 23-06-2016 17:55:00 34.9 C 57 % 25.1 C
1081 23-06-2016 18:00:00 34.9 C 52 % 23.57 C
1082 23-06-2016 18:05:00 34.8 C 57 % 25.01 C
1083 23-06-2016 18:10:00 34.9 C 58 % 25.4 C
1084 23-06-2016 18:15:00 34.8 C 54 % 24.11 C
1085 23-06-2016 18:20:00 34.5 C 53 % 23.52 C
1086 23-06-2016 18:25:00 34.4 C 56 % 24.34 C
1087 23-06-2016 18:30:00 34.5 C 57 % 24.73 C
1088 23-06-2016 18:35:00 34.6 C 53 % 23.61 C
1089 23-06-2016 18:40:00 34.8 C 58 % 25.3 C
1090 23-06-2016 18:45:00 35 C 58 % 25.49 C
1091 23-06-2016 18:50:00 34.8 C 58 % 25.3 C
1092 23-06-2016 18:55:00 34.8 C 59 % 25.59 C
1093 23-06-2016 19:00:00 34.5 C 53 % 23.52 C
1094 23-06-2016 19:05:00 34.4 C 60 % 25.5 C
1095 23-06-2016 19:10:00 34.4 C 61 % 25.78 C
1096 23-06-2016 19:15:00 34.2 C 61 % 25.59 C
1097 23-06-2016 19:20:00 34.1 C 55 % 23.76 C
1098 23-06-2016 19:25:00 33.9 C 57 % 24.17 C
1099 23-06-2016 19:30:00 33.7 C 61 % 25.12 C
1100 23-06-2016 19:35:00 33.4 C 59 % 24.28 C
Sensor: Nr:Datum:Temp:Feuchte:Taupunkt:
Aussen-T/F 1101 23-06-2016 19:40:00 33.2 C 63 % 25.19 C
1102 23-06-2016 19:45:00 32.8 C 63 % 24.82 C
1103 23-06-2016 19:50:00 32.5 C 65 % 25.06 C
1104 23-06-2016 19:55:00 32.2 C 66 % 25.03 C
1105 23-06-2016 20:00:00 31.8 C 66 % 24.65 C
1106 23-06-2016 20:05:00 31.4 C 67 % 24.52 C
1107 23-06-2016 20:10:00 31.1 C 68 % 24.49 C
1108 23-06-2016 20:15:00 30.8 C 68 % 24.2 C
1109 23-06-2016 20:20:00 30.5 C 69 % 24.16 C
1110 23-06-2016 20:25:00 30.2 C 70 % 24.11 C
1111 23-06-2016 20:30:00 30 C 71 % 24.16 C
1112 23-06-2016 20:35:00 29.7 C 72 % 24.11 C
1113 23-06-2016 20:40:00 29.5 C 72 % 23.91 C
1114 23-06-2016 20:45:00 29.3 C 73 % 23.95 C
1115 23-06-2016 20:50:00 29.1 C 73 % 23.76 C
1116 23-06-2016 20:55:00 28.7 C 74 % 23.6 C
1117 23-06-2016 21:00:00 28.3 C 74 % 23.22 C
1118 23-06-2016 21:05:00 27.8 C 75 % 22.96 C
1119 23-06-2016 21:10:00 27.4 C 76 % 22.79 C
1120 23-06-2016 21:15:00 26.9 C 77 % 22.52 C
1121 23-06-2016 21:20:00 26.5 C 78 % 22.35 C
1122 23-06-2016 21:25:00 26.1 C 79 % 22.17 C
1123 23-06-2016 21:30:00 25.8 C 80 % 22.08 C
1124 23-06-2016 21:35:00 25.6 C 81 % 22.09 C
1125 23-06-2016 21:40:00 25.3 C 82 % 22 C
Sensor: Nr:Datum:Temp:Feuchte:Taupunkt:
Aussen-T/F 1126 23-06-2016 21:45:00 25.1 C 82 % 21.81 C
1127 23-06-2016 21:50:00 24.9 C 82 % 21.61 C
1128 23-06-2016 21:55:00 24.8 C 83 % 21.71 C
1129 23-06-2016 22:00:00 24.6 C 83 % 21.52 C
1130 23-06-2016 22:05:00 24.5 C 83 % 21.42 C
1131 23-06-2016 22:10:00 24.4 C 83 % 21.32 C
1132 23-06-2016 22:15:00 24.3 C 83 % 21.22 C
1133 23-06-2016 22:20:00 24.3 C 83 % 21.22 C
1134 23-06-2016 22:25:00 24.2 C 84 % 21.32 C
1135 23-06-2016 22:30:00 24.2 C 83 % 21.13 C
1136 23-06-2016 22:35:00 24.1 C 84 % 21.22 C
1137 23-06-2016 22:40:00 24 C 84 % 21.13 C
1138 23-06-2016 22:45:00 23.9 C 84 % 21.03 C
1139 23-06-2016 22:50:00 23.8 C 84 % 20.93 C
1140 23-06-2016 22:55:00 23.7 C 84 % 20.83 C
1141 23-06-2016 23:00:00 23.7 C 84 % 20.83 C
1142 23-06-2016 23:05:00 23.6 C 84 % 20.74 C
1143 23-06-2016 23:10:00 23.5 C 85 % 20.83 C
1144 23-06-2016 23:15:00 23.4 C 85 % 20.73 C
1145 23-06-2016 23:20:00 23.3 C 86 % 20.82 C
1146 23-06-2016 23:25:00 23.2 C 86 % 20.73 C
1147 23-06-2016 23:30:00 23.1 C 87 % 20.82 C
1148 23-06-2016 23:35:00 22.9 C 87 % 20.62 C
1149 23-06-2016 23:40:00 22.8 C 87 % 20.52 C
1150 23-06-2016 23:45:00 22.8 C 88 % 20.71 C
Sensor: Nr:Datum:Temp:Feuchte:Taupunkt:
Aussen-T/F 1151 23-06-2016 23:50:00 22.7 C 88 % 20.61 C
1152 23-06-2016 23:55:00 22.6 C 88 % 20.51 C
1153 24-06-2016 00:00:00 22.6 C 88 % 20.51 C
1154 24-06-2016 00:05:00 22.6 C 88 % 20.51 C
1155 24-06-2016 00:10:00 22.6 C 89 % 20.69 C
1156 24-06-2016 00:15:00 22.6 C 89 % 20.69 C
1157 24-06-2016 00:20:00 22.5 C 89 % 20.59 C
1158 24-06-2016 00:25:00 22.4 C 89 % 20.5 C
1159 24-06-2016 00:30:00 22.3 C 89 % 20.4 C
1160 24-06-2016 00:35:00 22.2 C 89 % 20.3 C
1161 24-06-2016 00:40:00 22.2 C 90 % 20.48 C
1162 24-06-2016 00:45:00 22.2 C 90 % 20.48 C
1163 24-06-2016 00:50:00 22.4 C 89 % 20.5 C
1164 24-06-2016 00:55:00 22.9 C 88 % 20.81 C
1165 24-06-2016 01:00:00 23.2 C 86 % 20.73 C
1166 24-06-2016 01:05:00 23.2 C 84 % 20.34 C
1167 24-06-2016 01:10:00 23.2 C 85 % 20.54 C
1168 24-06-2016 01:15:00 23.2 C 85 % 20.54 C
1169 24-06-2016 01:20:00 23.1 C 85 % 20.44 C
1170 24-06-2016 01:25:00 22.9 C 85 % 20.24 C
1171 24-06-2016 01:30:00 22.8 C 86 % 20.33 C
1172 24-06-2016 01:35:00 22.7 C 85 % 20.05 C
1173 24-06-2016 01:40:00 22.6 C 85 % 19.95 C
1174 24-06-2016 01:45:00 22.7 C 85 % 20.05 C
1175 24-06-2016 01:50:00 22.6 C 84 % 19.76 C
Sensor: Nr:Datum:Temp:Feuchte:Taupunkt:
Aussen-T/F 1176 24-06-2016 01:55:00 22.5 C 85 % 19.85 C
1177 24-06-2016 02:00:00 22.4 C 86 % 19.94 C
1178 24-06-2016 02:05:00 22.3 C 85 % 19.65 C
1179 24-06-2016 02:10:00 22.2 C 86 % 19.75 C
1180 24-06-2016 02:15:00 22.1 C 86 % 19.65 C
1181 24-06-2016 02:20:00 21.9 C 87 % 19.64 C
1182 24-06-2016 02:25:00 21.8 C 87 % 19.54 C
1183 24-06-2016 02:30:00 21.6 C 88 % 19.53 C
1184 24-06-2016 02:35:00 21.5 C 88 % 19.43 C
1185 24-06-2016 02:40:00 21.4 C 88 % 19.33 C
1186 24-06-2016 02:45:00 21.3 C 89 % 19.41 C
1187 24-06-2016 02:50:00 21.3 C 89 % 19.41 C
1188 24-06-2016 02:55:00 21.2 C 89 % 19.31 C
1189 24-06-2016 03:00:00 21.2 C 89 % 19.31 C
1190 24-06-2016 03:05:00 21.1 C 89 % 19.22 C
1191 24-06-2016 03:10:00 21 C 89 % 19.12 C
1192 24-06-2016 03:15:00 20.9 C 89 % 19.02 C
1193 24-06-2016 03:20:00 20.8 C 90 % 19.1 C
1194 24-06-2016 03:25:00 20.8 C 90 % 19.1 C
1195 24-06-2016 03:30:00 20.7 C 90 % 19 C
1196 24-06-2016 03:35:00 20.7 C 90 % 19 C
1197 24-06-2016 03:40:00 20.6 C 90 % 18.9 C
1198 24-06-2016 03:45:00 20.4 C 91 % 18.88 C
1199 24-06-2016 03:50:00 20.3 C 91 % 18.78 C
1200 24-06-2016 03:55:00 20.2 C 91 % 18.68 C
Sensor: Nr:Datum:Temp:Feuchte:Taupunkt:
Aussen-T/F 1201 24-06-2016 04:00:00 20.1 C 91 % 18.58 C
1202 24-06-2016 04:05:00 20.1 C 92 % 18.76 C
1203 24-06-2016 04:10:00 19.9 C 92 % 18.56 C
1204 24-06-2016 04:15:00 19.9 C 92 % 18.56 C
1205 24-06-2016 04:20:00 19.8 C 92 % 18.46 C
1206 24-06-2016 04:25:00 19.8 C 92 % 18.46 C
1207 24-06-2016 04:30:00 19.7 C 93 % 18.54 C
1208 24-06-2016 04:35:00 19.7 C 93 % 18.54 C
1209 24-06-2016 04:40:00 19.6 C 93 % 18.44 C
1210 24-06-2016 04:45:00 19.5 C 93 % 18.34 C
1211 24-06-2016 04:50:00 19.6 C 93 % 18.44 C
1212 24-06-2016 04:55:00 19.5 C 93 % 18.34 C
1213 24-06-2016 05:00:00 19.5 C 93 % 18.34 C
1214 24-06-2016 05:05:00 19.5 C 93 % 18.34 C
1215 24-06-2016 05:10:00 19.4 C 93 % 18.24 C
1216 24-06-2016 05:15:00 19.4 C 93 % 18.24 C
1217 24-06-2016 05:20:00 19.4 C 93 % 18.24 C
1218 24-06-2016 05:25:00 19.3 C 94 % 18.31 C
1219 24-06-2016 05:30:00 19.3 C 94 % 18.31 C
1220 24-06-2016 05:35:00 19.3 C 94 % 18.31 C
1221 24-06-2016 05:40:00 19.2 C 94 % 18.21 C
1222 24-06-2016 05:45:00 19.3 C 94 % 18.31 C
1223 24-06-2016 05:50:00 19.3 C 94 % 18.31 C
1224 24-06-2016 05:55:00 19.3 C 94 % 18.31 C
1225 24-06-2016 06:00:00 19.3 C 94 % 18.31 C
Sensor: Nr:Datum:Temp:Feuchte:Taupunkt:
Aussen-T/F 1226 24-06-2016 06:05:00 19.2 C 94 % 18.21 C
1227 24-06-2016 06:10:00 19.2 C 94 % 18.21 C
1228 24-06-2016 06:15:00 19.2 C 94 % 18.21 C
1229 24-06-2016 06:20:00 19.2 C 94 % 18.21 C
1230 24-06-2016 06:25:00 19.1 C 94 % 18.11 C
1231 24-06-2016 06:30:00 19.1 C 94 % 18.11 C
1232 24-06-2016 06:35:00 19.1 C 94 % 18.11 C
1233 24-06-2016 06:40:00 19.2 C 95 % 18.38 C
1234 24-06-2016 06:45:00 19.2 C 94 % 18.21 C
1235 24-06-2016 06:50:00 19.2 C 94 % 18.21 C
1236 24-06-2016 06:55:00 19.1 C 94 % 18.11 C
1237 24-06-2016 07:00:00 19.2 C 94 % 18.21 C
1238 24-06-2016 07:05:00 19.2 C 95 % 18.38 C
1239 24-06-2016 07:10:00 19.3 C 95 % 18.48 C
1240 24-06-2016 07:15:00 19.3 C 95 % 18.48 C
1241 24-06-2016 07:20:00 19.3 C 95 % 18.48 C
1242 24-06-2016 07:25:00 19.4 C 95 % 18.58 C
1243 24-06-2016 07:30:00 19.4 C 95 % 18.58 C
1244 24-06-2016 07:35:00 19.5 C 95 % 18.68 C
1245 24-06-2016 07:40:00 19.6 C 95 % 18.78 C
1246 24-06-2016 07:45:00 19.7 C 95 % 18.88 C
1247 24-06-2016 07:50:00 19.7 C 95 % 18.88 C
1248 24-06-2016 07:55:00 19.8 C 95 % 18.98 C
1249 24-06-2016 08:00:00 19.9 C 95 % 19.07 C
1250 24-06-2016 08:05:00 20 C 95 % 19.17 C
Sensor: Nr:Datum:Temp:Feuchte:Taupunkt:
Aussen-T/F 1251 24-06-2016 08:10:00 20.2 C 95 % 19.37 C
1252 24-06-2016 08:15:00 20.2 C 95 % 19.37 C
1253 24-06-2016 08:20:00 20.3 C 95 % 19.47 C
1254 24-06-2016 08:25:00 20.4 C 95 % 19.57 C
1255 24-06-2016 08:30:00 20.4 C 95 % 19.57 C
1256 24-06-2016 08:35:00 20.6 C 95 % 19.77 C
1257 24-06-2016 08:40:00 20.7 C 95 % 19.87 C
1258 24-06-2016 08:45:00 20.7 C 94 % 19.7 C
1259 24-06-2016 08:50:00 20.8 C 95 % 19.97 C
1260 24-06-2016 08:55:00 20.9 C 95 % 20.07 C
1261 24-06-2016 09:00:00 21 C 94 % 20 C
1262 24-06-2016 09:05:00 21.1 C 94 % 20.1 C
1263 24-06-2016 09:10:00 21.3 C 94 % 20.29 C
1264 24-06-2016 09:15:00 21.4 C 94 % 20.39 C
1265 24-06-2016 09:20:00 21.6 C 94 % 20.59 C
1266 24-06-2016 09:25:00 21.8 C 94 % 20.79 C
1267 24-06-2016 09:30:00 22.1 C 93 % 20.91 C
1268 24-06-2016 09:35:00 22.3 C 93 % 21.11 C
1269 24-06-2016 09:40:00 22.4 C 93 % 21.21 C
1270 24-06-2016 09:45:00 22.5 C 92 % 21.13 C
1271 24-06-2016 09:50:00 22.7 C 92 % 21.33 C
1272 24-06-2016 09:55:00 22.8 C 92 % 21.43 C
1273 24-06-2016 10:00:00 23 C 92 % 21.63 C
1274 24-06-2016 10:05:00 23.3 C 91 % 21.75 C
1275 24-06-2016 10:10:00 23.7 C 90 % 21.96 C
Sensor: Nr:Datum:Temp:Feuchte:Taupunkt:
Aussen-T/F 1276 24-06-2016 10:15:00 24.2 C 87 % 21.9 C
1277 24-06-2016 10:20:00 25 C 83 % 21.91 C
1278 24-06-2016 10:25:00 25.7 C 82 % 22.39 C
1279 24-06-2016 10:30:00 26.2 C 80 % 22.47 C
1280 24-06-2016 10:35:00 26.6 C 78 % 22.44 C
1281 24-06-2016 10:40:00 26.8 C 79 % 22.85 C
1282 24-06-2016 10:45:00 26.7 C 77 % 22.33 C
1283 24-06-2016 10:50:00 26.6 C 76 % 22.02 C
1284 24-06-2016 10:55:00 26.7 C 79 % 22.75 C
1285 24-06-2016 11:00:00 26.7 C 80 % 22.96 C
1286 24-06-2016 11:05:00 26.7 C 79 % 22.75 C
1287 24-06-2016 11:10:00 26.6 C 78 % 22.44 C
1288 24-06-2016 11:15:00 26.6 C 79 % 22.65 C
1289 24-06-2016 11:20:00 26.7 C 82 % 23.37 C
1290 24-06-2016 11:25:00 26.6 C 83 % 23.47 C
1291 24-06-2016 11:30:00 26.6 C 82 % 23.27 C
1292 24-06-2016 11:35:00 26.6 C 83 % 23.47 C
1293 24-06-2016 11:40:00 26.7 C 84 % 23.77 C
1294 24-06-2016 11:45:00 26.7 C 79 % 22.75 C
1295 24-06-2016 11:50:00 26.9 C 82 % 23.56 C
1296 24-06-2016 11:55:00 26.8 C 80 % 23.06 C
1297 24-06-2016 12:00:00 26.8 C 78 % 22.64 C
1298 24-06-2016 12:05:00 26.8 C 76 % 22.21 C
1299 24-06-2016 12:10:00 26.7 C 77 % 22.33 C
1300 24-06-2016 12:15:00 26.6 C 78 % 22.44 C
Sensor: Nr:Datum:Temp:Feuchte:Taupunkt:
Aussen-T/F 1301 24-06-2016 12:20:00 26.3 C 77 % 21.94 C
1302 24-06-2016 12:25:00 25.9 C 76 % 21.34 C
1303 24-06-2016 12:30:00 25.7 C 78 % 21.57 C
1304 24-06-2016 12:35:00 25.4 C 79 % 21.49 C
1305 24-06-2016 12:40:00 25.1 C 79 % 21.2 C
1306 24-06-2016 12:45:00 24.8 C 82 % 21.52 C
1307 24-06-2016 12:50:00 24.5 C 84 % 21.62 C
1308 24-06-2016 12:55:00 24.1 C 86 % 21.61 C
1309 24-06-2016 13:00:00 23.8 C 87 % 21.5 C
1310 24-06-2016 13:05:00 23.6 C 89 % 21.68 C
1311 24-06-2016 13:10:00 23.4 C 90 % 21.66 C
1312 24-06-2016 13:15:00 23.3 C 90 % 21.57 C
1313 24-06-2016 13:20:00 23.2 C 91 % 21.65 C
1314 24-06-2016 13:25:00 23.1 C 92 % 21.73 C
1315 24-06-2016 13:30:00 22.9 C 92 % 21.53 C
1316 24-06-2016 13:35:00 22.9 C 92 % 21.53 C
1317 24-06-2016 13:40:00 22.8 C 93 % 21.61 C
1318 24-06-2016 13:45:00 22.7 C 93 % 21.51 C
1319 24-06-2016 13:50:00 22.6 C 93 % 21.41 C
1320 24-06-2016 13:55:00 22.6 C 93 % 21.41 C
1321 24-06-2016 14:00:00 22.6 C 94 % 21.58 C
1322 24-06-2016 14:05:00 22.7 C 94 % 21.68 C
1323 24-06-2016 14:10:00 22.9 C 94 % 21.88 C
1324 24-06-2016 14:15:00 23.1 C 95 % 22.25 C
1325 24-06-2016 14:20:00 23.2 C 94 % 22.18 C
Sensor: Nr:Datum:Temp:Feuchte:Taupunkt:
Aussen-T/F 1326 24-06-2016 14:25:00 23.6 C 94 % 22.58 C
1327 24-06-2016 14:30:00 23.7 C 92 % 22.32 C
1328 24-06-2016 14:35:00 23.8 C 90 % 22.06 C
1329 24-06-2016 14:40:00 23.9 C 89 % 21.97 C
1330 24-06-2016 14:45:00 23.9 C 89 % 21.97 C
1331 24-06-2016 14:50:00 24 C 88 % 21.89 C
1332 24-06-2016 14:55:00 24 C 88 % 21.89 C
1333 24-06-2016 15:00:00 24.1 C 86 % 21.61 C
1334 24-06-2016 15:05:00 24.1 C 86 % 21.61 C
1335 24-06-2016 15:10:00 24.1 C 85 % 21.42 C
1336 24-06-2016 15:15:00 24.1 C 85 % 21.42 C
1337 24-06-2016 15:20:00 24.2 C 84 % 21.32 C
1338 24-06-2016 15:25:00 24.4 C 82 % 21.12 C
1339 24-06-2016 15:30:00 24.3 C 77 % 20.01 C
1340 24-06-2016 15:35:00 24.2 C 79 % 20.32 C
1341 24-06-2016 15:40:00 23.8 C 82 % 20.54 C
1342 24-06-2016 15:45:00 23.6 C 84 % 20.74 C
1343 24-06-2016 15:50:00 23.4 C 85 % 20.73 C
1344 24-06-2016 15:55:00 23.2 C 85 % 20.54 C
1345 24-06-2016 16:00:00 22.9 C 87 % 20.62 C
1346 24-06-2016 16:05:00 22.8 C 88 % 20.71 C
1347 24-06-2016 16:10:00 22.6 C 90 % 20.87 C
1348 24-06-2016 16:15:00 22.4 C 90 % 20.68 C
1349 24-06-2016 16:20:00 22.3 C 91 % 20.76 C
1350 24-06-2016 16:25:00 22.6 C 92 % 21.23 C
Sensor: Nr:Datum:Temp:Feuchte:Taupunkt:
Aussen-T/F 1351 24-06-2016 16:30:00 22.7 C 91 % 21.15 C
1352 24-06-2016 16:35:00 22.9 C 90 % 21.17 C
1353 24-06-2016 16:40:00 23.3 C 91 % 21.75 C
1354 24-06-2016 16:45:00 23.6 C 90 % 21.86 C
1355 24-06-2016 16:50:00 23.4 C 88 % 21.3 C
1356 24-06-2016 16:55:00 23.2 C 88 % 21.1 C
1357 24-06-2016 17:00:00 23.2 C 90 % 21.47 C
1358 24-06-2016 17:05:00 23.1 C 91 % 21.55 C
1359 24-06-2016 17:10:00 22.9 C 91 % 21.35 C
1360 24-06-2016 17:15:00 22.8 C 92 % 21.43 C
1361 24-06-2016 17:20:00 22.7 C 92 % 21.33 C
1362 24-06-2016 17:25:00 22.7 C 93 % 21.51 C
1363 24-06-2016 17:30:00 22.7 C 93 % 21.51 C
1364 24-06-2016 17:35:00 22.7 C 93 % 21.51 C
1365 24-06-2016 17:40:00 22.8 C 93 % 21.61 C
1366 24-06-2016 17:45:00 22.9 C 94 % 21.88 C
1367 24-06-2016 17:50:00 23.1 C 94 % 22.08 C
1368 24-06-2016 17:55:00 23.3 C 95 % 22.45 C
1369 24-06-2016 18:00:00 23.6 C 95 % 22.75 C
1370 24-06-2016 18:05:00 23.3 C 92 % 21.93 C
1371 24-06-2016 18:10:00 23.4 C 93 % 22.2 C
1372 24-06-2016 18:15:00 23.6 C 93 % 22.4 C
1373 24-06-2016 18:20:00 23.6 C 92 % 22.22 C
1374 24-06-2016 18:25:00 23.4 C 90 % 21.66 C
1375 24-06-2016 18:30:00 23.3 C 90 % 21.57 C
Sensor: Nr:Datum:Temp:Feuchte:Taupunkt:
Aussen-T/F 1376 24-06-2016 18:35:00 23.3 C 90 % 21.57 C
1377 24-06-2016 18:40:00 23.2 C 91 % 21.65 C
1378 24-06-2016 18:45:00 23.2 C 92 % 21.83 C
1379 24-06-2016 18:50:00 23.2 C 92 % 21.83 C
1380 24-06-2016 18:55:00 23.2 C 93 % 22 C
1381 24-06-2016 19:00:00 23.2 C 93 % 22 C
1382 24-06-2016 19:05:00 23.1 C 93 % 21.9 C
1383 24-06-2016 19:10:00 22.8 C 92 % 21.43 C
1384 24-06-2016 19:15:00 22.8 C 93 % 21.61 C
1385 24-06-2016 19:20:00 22.6 C 93 % 21.41 C
1386 24-06-2016 19:25:00 22.6 C 93 % 21.41 C
1387 24-06-2016 19:30:00 22.4 C 93 % 21.21 C
1388 24-06-2016 19:35:00 22.4 C 94 % 21.39 C
1389 24-06-2016 19:40:00 22.3 C 94 % 21.29 C
1390 24-06-2016 19:45:00 22.3 C 94 % 21.29 C
1391 24-06-2016 19:50:00 22.2 C 94 % 21.19 C
1392 24-06-2016 19:55:00 22.1 C 94 % 21.09 C
1393 24-06-2016 20:00:00 22 C 94 % 20.99 C
1394 24-06-2016 20:05:00 21.9 C 94 % 20.89 C
1395 24-06-2016 20:10:00 21.9 C 94 % 20.89 C
1396 24-06-2016 20:15:00 21.9 C 94 % 20.89 C
1397 24-06-2016 20:20:00 21.8 C 94 % 20.79 C
1398 24-06-2016 20:25:00 21.8 C 94 % 20.79 C
1399 24-06-2016 20:30:00 21.7 C 94 % 20.69 C
1400 24-06-2016 20:35:00 21.7 C 94 % 20.69 C
Sensor: Nr:Datum:Temp:Feuchte:Taupunkt:
Aussen-T/F 1401 24-06-2016 20:40:00 21.6 C 94 % 20.59 C
1402 24-06-2016 20:45:00 21.5 C 94 % 20.49 C
1403 24-06-2016 20:50:00 21.5 C 95 % 20.66 C
1404 24-06-2016 20:55:00 21.6 C 95 % 20.76 C
1405 24-06-2016 21:00:00 21.4 C 95 % 20.57 C
1406 24-06-2016 21:05:00 21.3 C 95 % 20.47 C
1407 24-06-2016 21:10:00 21.3 C 95 % 20.47 C
1408 24-06-2016 21:15:00 21.2 C 95 % 20.37 C
1409 24-06-2016 21:20:00 21.1 C 95 % 20.27 C
1410 24-06-2016 21:25:00 21.1 C 95 % 20.27 C
1411 24-06-2016 21:30:00 21 C 95 % 20.17 C
1412 24-06-2016 21:35:00 20.9 C 95 % 20.07 C
1413 24-06-2016 21:40:00 20.9 C 95 % 20.07 C
1414 24-06-2016 21:45:00 20.8 C 95 % 19.97 C
1415 24-06-2016 21:50:00 20.7 C 95 % 19.87 C
1416 24-06-2016 21:55:00 20.7 C 95 % 19.87 C
1417 24-06-2016 22:00:00 20.6 C 95 % 19.77 C
1418 24-06-2016 22:05:00 20.5 C 95 % 19.67 C
1419 24-06-2016 22:10:00 20.4 C 95 % 19.57 C
1420 24-06-2016 22:15:00 20.3 C 95 % 19.47 C
1421 24-06-2016 22:20:00 20.3 C 95 % 19.47 C
1422 24-06-2016 22:25:00 20.2 C 95 % 19.37 C
1423 24-06-2016 22:30:00 20.2 C 95 % 19.37 C
1424 24-06-2016 22:35:00 20.2 C 96 % 19.54 C
1425 24-06-2016 22:40:00 20.2 C 96 % 19.54 C
Sensor: Nr:Datum:Temp:Feuchte:Taupunkt:
Aussen-T/F 1426 24-06-2016 22:45:00 20.2 C 96 % 19.54 C
1427 24-06-2016 22:50:00 20.2 C 96 % 19.54 C
1428 24-06-2016 22:55:00 20.2 C 96 % 19.54 C
1429 24-06-2016 23:00:00 20.1 C 96 % 19.44 C
1430 24-06-2016 23:05:00 20.1 C 96 % 19.44 C
1431 24-06-2016 23:10:00 20 C 95 % 19.17 C
1432 24-06-2016 23:15:00 19.9 C 96 % 19.24 C
1433 24-06-2016 23:20:00 19.9 C 96 % 19.24 C
1434 24-06-2016 23:25:00 19.9 C 96 % 19.24 C
1435 24-06-2016 23:30:00 19.9 C 96 % 19.24 C
1436 24-06-2016 23:35:00 19.9 C 96 % 19.24 C
1437 24-06-2016 23:40:00 19.8 C 96 % 19.14 C
1438 24-06-2016 23:45:00 19.8 C 96 % 19.14 C
1439 24-06-2016 23:50:00 19.8 C 96 % 19.14 C
1440 24-06-2016 23:55:00 19.8 C 96 % 19.14 C
1441 25-06-2016 00:00:00 19.8 C 96 % 19.14 C
1442 25-06-2016 00:05:00 19.8 C 96 % 19.14 C
1443 25-06-2016 00:10:00 19.8 C 96 % 19.14 C
1444 25-06-2016 00:15:00 19.7 C 96 % 19.04 C
1445 25-06-2016 00:20:00 19.7 C 96 % 19.04 C
1446 25-06-2016 00:25:00 19.6 C 96 % 18.94 C
1447 25-06-2016 00:30:00 19.4 C 96 % 18.75 C
1448 25-06-2016 00:35:00 19.3 C 96 % 18.65 C
1449 25-06-2016 00:40:00 19.3 C 96 % 18.65 C
1450 25-06-2016 00:45:00 19.3 C 96 % 18.65 C
Sensor: Nr:Datum:Temp:Feuchte:Taupunkt:
Aussen-T/F 1451 25-06-2016 00:50:00 19.3 C 96 % 18.65 C
1452 25-06-2016 00:55:00 19.3 C 96 % 18.65 C
1453 25-06-2016 01:00:00 19.3 C 96 % 18.65 C
1454 25-06-2016 01:05:00 19.3 C 96 % 18.65 C
1455 25-06-2016 01:10:00 19.3 C 96 % 18.65 C
1456 25-06-2016 01:15:00 19.2 C 96 % 18.55 C
1457 25-06-2016 01:20:00 19.2 C 96 % 18.55 C
1458 25-06-2016 01:25:00 19.2 C 96 % 18.55 C
1459 25-06-2016 01:30:00 19.2 C 96 % 18.55 C
1460 25-06-2016 01:35:00 19.1 C 96 % 18.45 C
1461 25-06-2016 01:40:00 19.1 C 96 % 18.45 C
1462 25-06-2016 01:45:00 19.1 C 96 % 18.45 C
1463 25-06-2016 01:50:00 19.1 C 96 % 18.45 C
1464 25-06-2016 01:55:00 19 C 96 % 18.35 C
1465 25-06-2016 02:00:00 19 C 96 % 18.35 C
1466 25-06-2016 02:05:00 19.1 C 96 % 18.45 C
1467 25-06-2016 02:10:00 19.1 C 96 % 18.45 C
1468 25-06-2016 02:15:00 19.1 C 96 % 18.45 C
1469 25-06-2016 02:20:00 19.1 C 96 % 18.45 C
1470 25-06-2016 02:25:00 19.1 C 96 % 18.45 C
1471 25-06-2016 02:30:00 19.2 C 96 % 18.55 C
1472 25-06-2016 02:35:00 19.2 C 96 % 18.55 C
1473 25-06-2016 02:40:00 19.2 C 96 % 18.55 C
1474 25-06-2016 02:45:00 19.2 C 96 % 18.55 C
1475 25-06-2016 02:50:00 19.2 C 96 % 18.55 C
Sensor: Nr:Datum:Temp:Feuchte:Taupunkt:
Aussen-T/F 1476 25-06-2016 02:55:00 19.2 C 96 % 18.55 C
1477 25-06-2016 03:00:00 19.2 C 96 % 18.55 C
1478 25-06-2016 03:05:00 19.2 C 96 % 18.55 C
1479 25-06-2016 03:10:00 19.2 C 96 % 18.55 C
1480 25-06-2016 03:15:00 19.2 C 96 % 18.55 C
1481 25-06-2016 03:20:00 19.2 C 96 % 18.55 C
1482 25-06-2016 03:25:00 19.2 C 96 % 18.55 C
1483 25-06-2016 03:30:00 19.2 C 96 % 18.55 C
1484 25-06-2016 03:35:00 19.2 C 96 % 18.55 C
1485 25-06-2016 03:40:00 19.2 C 96 % 18.55 C
1486 25-06-2016 03:45:00 19.2 C 96 % 18.55 C
1487 25-06-2016 03:50:00 19.2 C 96 % 18.55 C
1488 25-06-2016 03:55:00 19.2 C 96 % 18.55 C
1489 25-06-2016 04:00:00 19.1 C 96 % 18.45 C
1490 25-06-2016 04:05:00 19.1 C 96 % 18.45 C
1491 25-06-2016 04:10:00 19.1 C 96 % 18.45 C
1492 25-06-2016 04:15:00 19.1 C 96 % 18.45 C
1493 25-06-2016 04:20:00 19.1 C 96 % 18.45 C
1494 25-06-2016 04:25:00 19.1 C 96 % 18.45 C
1495 25-06-2016 04:30:00 19.1 C 96 % 18.45 C
1496 25-06-2016 04:35:00 19.1 C 96 % 18.45 C
1497 25-06-2016 04:40:00 19 C 96 % 18.35 C
1498 25-06-2016 04:45:00 19 C 96 % 18.35 C
1499 25-06-2016 04:50:00 19 C 96 % 18.35 C
1500 25-06-2016 04:55:00 19 C 96 % 18.35 C
Sensor: Nr:Datum:Temp:Feuchte:Taupunkt:
Aussen-T/F 1501 25-06-2016 05:00:00 19 C 96 % 18.35 C
1502 25-06-2016 05:05:00 19 C 96 % 18.35 C
1503 25-06-2016 05:10:00 18.9 C 96 % 18.25 C
1504 25-06-2016 05:15:00 18.9 C 96 % 18.25 C
1505 25-06-2016 05:20:00 18.9 C 96 % 18.25 C
1506 25-06-2016 05:25:00 18.9 C 96 % 18.25 C
1507 25-06-2016 05:30:00 18.9 C 96 % 18.25 C
1508 25-06-2016 05:35:00 18.9 C 96 % 18.25 C
1509 25-06-2016 05:40:00 18.9 C 96 % 18.25 C
1510 25-06-2016 05:45:00 18.9 C 96 % 18.25 C
1511 25-06-2016 05:50:00 18.9 C 96 % 18.25 C
1512 25-06-2016 05:55:00 18.9 C 96 % 18.25 C
1513 25-06-2016 06:00:00 18.8 C 96 % 18.15 C
1514 25-06-2016 06:05:00 18.8 C 96 % 18.15 C
1515 25-06-2016 06:10:00 18.8 C 96 % 18.15 C
1516 25-06-2016 06:15:00 18.7 C 96 % 18.05 C
1517 25-06-2016 06:20:00 18.7 C 96 % 18.05 C
1518 25-06-2016 06:25:00 18.7 C 96 % 18.05 C
1519 25-06-2016 06:30:00 18.6 C 96 % 17.95 C
1520 25-06-2016 06:35:00 18.6 C 96 % 17.95 C
1521 25-06-2016 06:40:00 18.5 C 96 % 17.85 C
1522 25-06-2016 06:45:00 18.5 C 96 % 17.85 C
1523 25-06-2016 06:50:00 18.4 C 96 % 17.75 C
1524 25-06-2016 06:55:00 18.4 C 96 % 17.75 C
1525 25-06-2016 07:00:00 18.4 C 96 % 17.75 C
Sensor: Nr:Datum:Temp:Feuchte:Taupunkt:
Aussen-T/F 1526 25-06-2016 07:05:00 18.4 C 96 % 17.75 C
1527 25-06-2016 07:10:00 18.4 C 96 % 17.75 C
1528 25-06-2016 07:15:00 18.4 C 96 % 17.75 C
1529 25-06-2016 07:20:00 18.4 C 96 % 17.75 C
1530 25-06-2016 07:25:00 18.4 C 97 % 17.91 C
1531 25-06-2016 07:30:00 18.4 C 97 % 17.91 C
1532 25-06-2016 07:35:00 18.4 C 97 % 17.91 C
1533 25-06-2016 07:40:00 18.4 C 97 % 17.91 C
1534 25-06-2016 07:45:00 18.3 C 96 % 17.65 C
1535 25-06-2016 07:50:00 18.3 C 97 % 17.82 C
1536 25-06-2016 07:55:00 18.3 C 97 % 17.82 C
1537 25-06-2016 08:00:00 18.3 C 97 % 17.82 C
1538 25-06-2016 08:05:00 18.3 C 97 % 17.82 C
1539 25-06-2016 08:10:00 18.4 C 97 % 17.91 C
1540 25-06-2016 08:15:00 18.4 C 97 % 17.91 C
1541 25-06-2016 08:20:00 18.4 C 97 % 17.91 C
1542 25-06-2016 08:25:00 18.4 C 97 % 17.91 C
1543 25-06-2016 08:30:00 18.5 C 97 % 18.01 C
1544 25-06-2016 08:35:00 18.6 C 97 % 18.11 C
1545 25-06-2016 08:40:00 18.6 C 97 % 18.11 C
1546 25-06-2016 08:45:00 18.3 C 97 % 17.82 C
1547 25-06-2016 08:50:00 18.1 C 96 % 17.45 C
1548 25-06-2016 08:55:00 17.9 C 96 % 17.25 C
1549 25-06-2016 09:00:00 17.8 C 96 % 17.15 C
1550 25-06-2016 09:05:00 17.7 C 96 % 17.05 C
Sensor: Nr:Datum:Temp:Feuchte:Taupunkt:
Aussen-T/F 1551 25-06-2016 09:10:00 17.6 C 96 % 16.95 C
1552 25-06-2016 09:15:00 17.6 C 96 % 16.95 C
1553 25-06-2016 09:20:00 17.6 C 96 % 16.95 C
1554 25-06-2016 09:25:00 17.6 C 96 % 16.95 C
1555 25-06-2016 09:30:00 17.6 C 97 % 17.12 C
1556 25-06-2016 09:35:00 17.7 C 97 % 17.22 C
1557 25-06-2016 09:40:00 17.7 C 97 % 17.22 C
1558 25-06-2016 09:45:00 17.7 C 97 % 17.22 C
1559 25-06-2016 09:50:00 17.7 C 97 % 17.22 C
1560 25-06-2016 09:55:00 17.7 C 96 % 17.05 C
1561 25-06-2016 10:00:00 17.7 C 97 % 17.22 C
1562 25-06-2016 10:05:00 17.7 C 96 % 17.05 C
1563 25-06-2016 10:10:00 17.7 C 97 % 17.22 C
1564 25-06-2016 10:15:00 17.8 C 97 % 17.32 C
1565 25-06-2016 10:20:00 17.8 C 97 % 17.32 C
1566 25-06-2016 10:25:00 17.8 C 96 % 17.15 C
1567 25-06-2016 10:30:00 17.7 C 96 % 17.05 C
1568 25-06-2016 10:35:00 17.6 C 96 % 16.95 C
1569 25-06-2016 10:40:00 17.5 C 96 % 16.85 C
1570 25-06-2016 10:45:00 17.4 C 96 % 16.76 C
1571 25-06-2016 10:50:00 17.3 C 96 % 16.66 C
1572 25-06-2016 10:55:00 17.2 C 96 % 16.56 C
1573 25-06-2016 11:00:00 17.2 C 96 % 16.56 C
1574 25-06-2016 11:05:00 17.1 C 96 % 16.46 C
1575 25-06-2016 11:10:00 17.1 C 96 % 16.46 C
Sensor: Nr:Datum:Temp:Feuchte:Taupunkt:
Aussen-T/F 1576 25-06-2016 11:15:00 17.1 C 96 % 16.46 C
1577 25-06-2016 11:20:00 17 C 96 % 16.36 C
1578 25-06-2016 11:25:00 17 C 96 % 16.36 C
1579 25-06-2016 11:30:00 17.1 C 96 % 16.46 C
1580 25-06-2016 11:35:00 17 C 96 % 16.36 C
1581 25-06-2016 11:40:00 16.9 C 96 % 16.26 C
1582 25-06-2016 11:45:00 16.9 C 96 % 16.26 C
1583 25-06-2016 11:50:00 16.9 C 96 % 16.26 C
1584 25-06-2016 11:55:00 16.9 C 96 % 16.26 C
1585 25-06-2016 12:00:00 16.9 C 96 % 16.26 C
1586 25-06-2016 12:05:00 16.9 C 96 % 16.26 C
1587 25-06-2016 12:10:00 16.9 C 96 % 16.26 C
1588 25-06-2016 12:15:00 16.8 C 96 % 16.16 C
1589 25-06-2016 12:20:00 16.8 C 96 % 16.16 C
1590 25-06-2016 12:25:00 16.6 C 96 % 15.96 C
1591 25-06-2016 12:30:00 16.6 C 96 % 15.96 C
1592 25-06-2016 12:35:00 16.6 C 96 % 15.96 C
1593 25-06-2016 12:40:00 16.6 C 96 % 15.96 C
1594 25-06-2016 12:45:00 16.5 C 96 % 15.86 C
1595 25-06-2016 12:50:00 16.4 C 96 % 15.76 C
1596 25-06-2016 12:55:00 16.4 C 96 % 15.76 C
1597 25-06-2016 13:00:00 16.4 C 96 % 15.76 C
1598 25-06-2016 13:05:00 16.3 C 96 % 15.66 C
1599 25-06-2016 13:10:00 16.3 C 96 % 15.66 C
1600 25-06-2016 13:15:00 16.3 C 96 % 15.66 C
Sensor: Nr:Datum:Temp:Feuchte:Taupunkt:
Aussen-T/F 1601 25-06-2016 13:20:00 16.2 C 96 % 15.56 C
1602 25-06-2016 13:25:00 16.1 C 95 % 15.3 C
1603 25-06-2016 13:30:00 16.1 C 96 % 15.46 C
1604 25-06-2016 13:35:00 16.2 C 96 % 15.56 C
1605 25-06-2016 13:40:00 16.2 C 96 % 15.56 C
1606 25-06-2016 13:45:00 16.2 C 96 % 15.56 C
1607 25-06-2016 13:50:00 16.2 C 96 % 15.56 C
1608 25-06-2016 13:55:00 16.1 C 96 % 15.46 C
1609 25-06-2016 14:00:00 16.1 C 96 % 15.46 C
1610 25-06-2016 14:05:00 16.1 C 96 % 15.46 C
1611 25-06-2016 14:10:00 16.1 C 96 % 15.46 C
1612 25-06-2016 14:15:00 16.1 C 96 % 15.46 C
1613 25-06-2016 14:20:00 16 C 96 % 15.36 C
1614 25-06-2016 14:25:00 15.9 C 96 % 15.26 C
1615 25-06-2016 14:30:00 15.9 C 96 % 15.26 C
1616 25-06-2016 14:35:00 15.9 C 96 % 15.26 C
1617 25-06-2016 14:40:00 15.8 C 96 % 15.16 C
1618 25-06-2016 14:45:00 15.8 C 96 % 15.16 C
1619 25-06-2016 14:50:00 15.8 C 96 % 15.16 C
1620 25-06-2016 14:55:00 15.8 C 96 % 15.16 C
1621 25-06-2016 15:00:00 15.8 C 96 % 15.16 C
1622 25-06-2016 15:05:00 15.8 C 96 % 15.16 C
1623 25-06-2016 15:10:00 15.8 C 96 % 15.16 C
1624 25-06-2016 15:15:00 15.8 C 96 % 15.16 C
1625 25-06-2016 15:20:00 15.8 C 96 % 15.16 C
Sensor: Nr:Datum:Temp:Feuchte:Taupunkt:
Aussen-T/F 1626 25-06-2016 15:25:00 15.8 C 96 % 15.16 C
1627 25-06-2016 15:30:00 15.9 C 96 % 15.26 C
1628 25-06-2016 15:35:00 15.8 C 96 % 15.16 C
1629 25-06-2016 15:40:00 15.7 C 95 % 14.9 C
1630 25-06-2016 15:45:00 15.8 C 96 % 15.16 C
1631 25-06-2016 15:50:00 15.8 C 96 % 15.16 C
1632 25-06-2016 15:55:00 15.7 C 95 % 14.9 C
1633 25-06-2016 16:00:00 15.6 C 95 % 14.8 C
1634 25-06-2016 16:05:00 15.7 C 96 % 15.06 C
1635 25-06-2016 16:10:00 15.6 C 95 % 14.8 C
1636 25-06-2016 16:15:00 15.6 C 96 % 14.96 C
1637 25-06-2016 16:20:00 15.6 C 96 % 14.96 C
1638 25-06-2016 16:25:00 15.5 C 95 % 14.7 C
1639 25-06-2016 16:30:00 15.4 C 95 % 14.6 C
1640 25-06-2016 16:35:00 15.4 C 96 % 14.77 C
1641 25-06-2016 16:40:00 15.4 C 96 % 14.77 C
1642 25-06-2016 16:45:00 15.4 C 96 % 14.77 C
1643 25-06-2016 16:50:00 15.3 C 95 % 14.5 C
1644 25-06-2016 16:55:00 15.3 C 95 % 14.5 C
1645 25-06-2016 17:00:00 15.3 C 95 % 14.5 C
1646 25-06-2016 17:05:00 15.2 C 95 % 14.4 C
1647 25-06-2016 17:10:00 15.2 C 95 % 14.4 C
1648 25-06-2016 17:15:00 15.3 C 96 % 14.67 C
1649 25-06-2016 17:20:00 15.3 C 96 % 14.67 C
1650 25-06-2016 17:25:00 15.4 C 96 % 14.77 C
Sensor: Nr:Datum:Temp:Feuchte:Taupunkt:
Aussen-T/F 1651 25-06-2016 17:30:00 15.5 C 96 % 14.86 C
1652 25-06-2016 17:35:00 15.6 C 96 % 14.96 C
1653 25-06-2016 17:40:00 15.7 C 96 % 15.06 C
1654 25-06-2016 17:45:00 15.7 C 96 % 15.06 C
1655 25-06-2016 17:50:00 15.7 C 96 % 15.06 C
1656 25-06-2016 17:55:00 15.6 C 95 % 14.8 C
1657 25-06-2016 18:00:00 15.6 C 95 % 14.8 C
1658 25-06-2016 18:05:00 15.7 C 95 % 14.9 C
1659 25-06-2016 18:10:00 15.7 C 95 % 14.9 C
1660 25-06-2016 18:15:00 15.8 C 95 % 15 C
1661 25-06-2016 18:20:00 15.8 C 95 % 15 C
1662 25-06-2016 18:25:00 15.8 C 95 % 15 C
1663 25-06-2016 18:30:00 15.7 C 95 % 14.9 C
1664 25-06-2016 18:35:00 15.6 C 95 % 14.8 C
1665 25-06-2016 18:40:00 15.6 C 95 % 14.8 C
1666 25-06-2016 18:45:00 15.6 C 95 % 14.8 C
1667 25-06-2016 18:50:00 15.6 C 95 % 14.8 C
1668 25-06-2016 18:55:00 15.6 C 95 % 14.8 C
1669 25-06-2016 19:00:00 15.6 C 95 % 14.8 C
1670 25-06-2016 19:05:00 15.6 C 95 % 14.8 C
1671 25-06-2016 19:10:00 15.5 C 95 % 14.7 C
1672 25-06-2016 19:15:00 15.4 C 95 % 14.6 C
1673 25-06-2016 19:20:00 15.3 C 95 % 14.5 C
1674 25-06-2016 19:25:00 15.2 C 95 % 14.4 C
1675 25-06-2016 19:30:00 15.1 C 95 % 14.31 C
Sensor: Nr:Datum:Temp:Feuchte:Taupunkt:
Aussen-T/F 1676 25-06-2016 19:35:00 15.1 C 95 % 14.31 C
1677 25-06-2016 19:40:00 15.1 C 95 % 14.31 C
1678 25-06-2016 19:45:00 15 C 95 % 14.21 C
1679 25-06-2016 19:50:00 15 C 95 % 14.21 C
1680 25-06-2016 19:55:00 14.9 C 95 % 14.11 C
1681 25-06-2016 20:00:00 15 C 96 % 14.37 C
1682 25-06-2016 20:05:00 15.1 C 96 % 14.47 C
1683 25-06-2016 20:10:00 15.2 C 96 % 14.57 C
1684 25-06-2016 20:15:00 15.1 C 96 % 14.47 C
1685 25-06-2016 20:20:00 15.1 C 96 % 14.47 C
1686 25-06-2016 20:25:00 15.2 C 96 % 14.57 C
1687 25-06-2016 20:30:00 15.2 C 96 % 14.57 C
1688 25-06-2016 20:35:00 15.1 C 96 % 14.47 C
1689 25-06-2016 20:40:00 15.1 C 96 % 14.47 C
1690 25-06-2016 20:45:00 15 C 96 % 14.37 C
1691 25-06-2016 20:50:00 15.1 C 96 % 14.47 C
1692 25-06-2016 20:55:00 15.1 C 96 % 14.47 C
1693 25-06-2016 21:00:00 15 C 96 % 14.37 C
1694 25-06-2016 21:05:00 14.9 C 96 % 14.27 C
1695 25-06-2016 21:10:00 14.8 C 96 % 14.17 C
1696 25-06-2016 21:15:00 14.6 C 95 % 13.81 C
1697 25-06-2016 21:20:00 14.3 C 95 % 13.51 C
1698 25-06-2016 21:25:00 14.2 C 95 % 13.41 C
1699 25-06-2016 21:30:00 14.1 C 95 % 13.31 C
1700 25-06-2016 21:35:00 13.9 C 95 % 13.11 C
Sensor: Nr:Datum:Temp:Feuchte:Taupunkt:
Aussen-T/F 1701 25-06-2016 21:40:00 13.8 C 95 % 13.01 C
1702 25-06-2016 21:45:00 13.8 C 95 % 13.01 C
1703 25-06-2016 21:50:00 13.7 C 96 % 13.07 C
1704 25-06-2016 21:55:00 13.6 C 96 % 12.97 C
1705 25-06-2016 22:00:00 13.6 C 95 % 12.81 C
1706 25-06-2016 22:05:00 13.5 C 96 % 12.87 C
1707 25-06-2016 22:10:00 13.4 C 96 % 12.78 C
1708 25-06-2016 22:15:00 13.4 C 96 % 12.78 C
1709 25-06-2016 22:20:00 13.3 C 96 % 12.68 C
1710 25-06-2016 22:25:00 13.2 C 96 % 12.58 C
1711 25-06-2016 22:30:00 13.2 C 96 % 12.58 C
1712 25-06-2016 22:35:00 13.2 C 96 % 12.58 C
1713 25-06-2016 22:40:00 13.2 C 96 % 12.58 C
1714 25-06-2016 22:45:00 13.2 C 96 % 12.58 C
1715 25-06-2016 22:50:00 13.1 C 96 % 12.48 C
1716 25-06-2016 22:55:00 13.1 C 96 % 12.48 C
1717 25-06-2016 23:00:00 13 C 96 % 12.38 C
1718 25-06-2016 23:05:00 12.9 C 96 % 12.28 C
1719 25-06-2016 23:10:00 12.8 C 96 % 12.18 C
1720 25-06-2016 23:15:00 12.8 C 96 % 12.18 C
1721 25-06-2016 23:20:00 12.8 C 96 % 12.18 C
1722 25-06-2016 23:25:00 12.8 C 96 % 12.18 C
1723 25-06-2016 23:30:00 12.8 C 96 % 12.18 C
1724 25-06-2016 23:35:00 12.7 C 96 % 12.08 C
1725 25-06-2016 23:40:00 12.7 C 96 % 12.08 C
Sensor: Nr:Datum:Temp:Feuchte:Taupunkt:
Aussen-T/F 1726 25-06-2016 23:45:00 12.7 C 96 % 12.08 C
1727 25-06-2016 23:50:00 12.6 C 96 % 11.98 C
1728 25-06-2016 23:55:00 12.6 C 96 % 11.98 C
1729 26-06-2016 00:00:00 12.6 C 96 % 11.98 C
1730 26-06-2016 00:05:00 12.6 C 96 % 11.98 C
1731 26-06-2016 00:10:00 12.5 C 96 % 11.88 C
1732 26-06-2016 00:15:00 12.5 C 97 % 12.04 C
1733 26-06-2016 00:20:00 12.5 C 97 % 12.04 C
1734 26-06-2016 00:25:00 12.5 C 97 % 12.04 C
1735 26-06-2016 00:30:00 12.5 C 97 % 12.04 C
1736 26-06-2016 00:35:00 12.5 C 97 % 12.04 C
1737 26-06-2016 00:40:00 12.6 C 97 % 12.14 C
1738 26-06-2016 00:45:00 12.7 C 97 % 12.24 C
1739 26-06-2016 00:50:00 12.8 C 97 % 12.34 C
1740 26-06-2016 00:55:00 12.9 C 97 % 12.44 C
1741 26-06-2016 01:00:00 13.1 C 97 % 12.63 C
1742 26-06-2016 01:05:00 13.2 C 97 % 12.73 C
1743 26-06-2016 01:10:00 13.3 C 97 % 12.83 C
1744 26-06-2016 01:15:00 13.4 C 97 % 12.93 C
1745 26-06-2016 01:20:00 13.4 C 97 % 12.93 C
1746 26-06-2016 01:25:00 13.4 C 97 % 12.93 C
1747 26-06-2016 01:30:00 13.5 C 97 % 13.03 C
1748 26-06-2016 01:35:00 13.5 C 97 % 13.03 C
1749 26-06-2016 01:40:00 13.5 C 97 % 13.03 C
1750 26-06-2016 01:45:00 13.4 C 97 % 12.93 C
Sensor: Nr:Datum:Temp:Feuchte:Taupunkt:
Aussen-T/F 1751 26-06-2016 01:50:00 13.3 C 97 % 12.83 C
1752 26-06-2016 01:55:00 13.3 C 97 % 12.83 C
1753 26-06-2016 02:00:00 13.2 C 97 % 12.73 C
1754 26-06-2016 02:05:00 13.1 C 97 % 12.63 C
1755 26-06-2016 02:10:00 13.1 C 97 % 12.63 C
1756 26-06-2016 02:15:00 13.1 C 97 % 12.63 C
1757 26-06-2016 02:20:00 13.1 C 97 % 12.63 C
1758 26-06-2016 02:25:00 13.1 C 97 % 12.63 C
1759 26-06-2016 02:30:00 13.1 C 97 % 12.63 C
1760 26-06-2016 02:35:00 13 C 97 % 12.54 C
1761 26-06-2016 02:40:00 13 C 97 % 12.54 C
1762 26-06-2016 02:45:00 13 C 97 % 12.54 C
1763 26-06-2016 02:50:00 12.9 C 97 % 12.44 C
1764 26-06-2016 02:55:00 12.9 C 97 % 12.44 C
1765 26-06-2016 03:00:00 12.9 C 97 % 12.44 C
1766 26-06-2016 03:05:00 12.9 C 97 % 12.44 C
1767 26-06-2016 03:10:00 12.9 C 97 % 12.44 C
1768 26-06-2016 03:15:00 12.8 C 97 % 12.34 C
1769 26-06-2016 03:20:00 12.8 C 97 % 12.34 C
1770 26-06-2016 03:25:00 12.8 C 97 % 12.34 C
1771 26-06-2016 03:30:00 12.8 C 97 % 12.34 C
1772 26-06-2016 03:35:00 12.7 C 97 % 12.24 C
1773 26-06-2016 03:40:00 12.7 C 97 % 12.24 C
1774 26-06-2016 03:45:00 12.6 C 97 % 12.14 C
1775 26-06-2016 03:50:00 12.6 C 97 % 12.14 C
Sensor: Nr:Datum:Temp:Feuchte:Taupunkt:
Aussen-T/F 1776 26-06-2016 03:55:00 12.5 C 97 % 12.04 C
1777 26-06-2016 04:00:00 12.4 C 97 % 11.94 C
1778 26-06-2016 04:05:00 12.4 C 97 % 11.94 C
1779 26-06-2016 04:10:00 12.3 C 97 % 11.84 C
1780 26-06-2016 04:15:00 12.3 C 97 % 11.84 C
1781 26-06-2016 04:20:00 12.2 C 97 % 11.74 C
1782 26-06-2016 04:25:00 12.2 C 97 % 11.74 C
1783 26-06-2016 04:30:00 12.2 C 97 % 11.74 C
1784 26-06-2016 04:35:00 12.1 C 97 % 11.64 C
1785 26-06-2016 04:40:00 12.1 C 97 % 11.64 C
1786 26-06-2016 04:45:00 12 C 97 % 11.54 C
1787 26-06-2016 04:50:00 12 C 97 % 11.54 C
1788 26-06-2016 04:55:00 11.9 C 97 % 11.44 C
1789 26-06-2016 05:00:00 11.8 C 97 % 11.34 C
1790 26-06-2016 05:05:00 11.7 C 97 % 11.24 C
1791 26-06-2016 05:10:00 11.7 C 97 % 11.24 C
1792 26-06-2016 05:15:00 11.6 C 97 % 11.14 C
1793 26-06-2016 05:20:00 11.5 C 97 % 11.04 C
1794 26-06-2016 05:25:00 11.3 C 97 % 10.84 C
1795 26-06-2016 05:30:00 11.3 C 97 % 10.84 C
1796 26-06-2016 05:35:00 11.2 C 97 % 10.74 C
1797 26-06-2016 05:40:00 11.2 C 97 % 10.74 C
1798 26-06-2016 05:45:00 11.2 C 97 % 10.74 C
1799 26-06-2016 05:50:00 11.2 C 97 % 10.74 C
1800 26-06-2016 05:55:00 11.2 C 97 % 10.74 C
Sensor: Nr:Datum:Temp:Feuchte:Taupunkt:
Aussen-T/F 1801 26-06-2016 06:00:00 11.2 C 97 % 10.74 C
1802 26-06-2016 06:05:00 11.3 C 97 % 10.84 C
1803 26-06-2016 06:10:00 11.3 C 97 % 10.84 C
1804 26-06-2016 06:15:00 11.3 C 97 % 10.84 C
1805 26-06-2016 06:20:00 11.3 C 97 % 10.84 C
1806 26-06-2016 06:25:00 11.4 C 97 % 10.94 C
1807 26-06-2016 06:30:00 11.4 C 97 % 10.94 C
1808 26-06-2016 06:35:00 11.5 C 97 % 11.04 C
1809 26-06-2016 06:40:00 11.6 C 97 % 11.14 C
1810 26-06-2016 06:45:00 11.6 C 97 % 11.14 C
1811 26-06-2016 06:50:00 11.7 C 97 % 11.24 C
1812 26-06-2016 06:55:00 11.7 C 97 % 11.24 C
1813 26-06-2016 07:00:00 11.8 C 97 % 11.34 C
1814 26-06-2016 07:05:00 11.8 C 97 % 11.34 C
1815 26-06-2016 07:10:00 11.9 C 97 % 11.44 C
1816 26-06-2016 07:15:00 12 C 98 % 11.69 C
1817 26-06-2016 07:20:00 12.1 C 97 % 11.64 C
1818 26-06-2016 07:25:00 12.2 C 97 % 11.74 C
1819 26-06-2016 07:30:00 12.2 C 98 % 11.89 C
1820 26-06-2016 07:35:00 12.3 C 98 % 11.99 C
1821 26-06-2016 07:40:00 12.5 C 98 % 12.19 C
1822 26-06-2016 07:45:00 12.8 C 98 % 12.49 C
1823 26-06-2016 07:50:00 12.9 C 98 % 12.59 C
1824 26-06-2016 07:55:00 13 C 98 % 12.69 C
1825 26-06-2016 08:00:00 13 C 98 % 12.69 C
Sensor: Nr:Datum:Temp:Feuchte:Taupunkt:
Aussen-T/F 1826 26-06-2016 08:05:00 13 C 98 % 12.69 C
1827 26-06-2016 08:10:00 13 C 98 % 12.69 C
1828 26-06-2016 08:15:00 13 C 97 % 12.54 C
1829 26-06-2016 08:20:00 13.1 C 97 % 12.63 C
1830 26-06-2016 08:25:00 13.1 C 97 % 12.63 C
1831 26-06-2016 08:30:00 13.1 C 97 % 12.63 C
1832 26-06-2016 08:35:00 13 C 97 % 12.54 C
1833 26-06-2016 08:40:00 13 C 97 % 12.54 C
1834 26-06-2016 08:45:00 13.1 C 97 % 12.63 C
1835 26-06-2016 08:50:00 13.1 C 97 % 12.63 C
1836 26-06-2016 08:55:00 13.2 C 97 % 12.73 C
1837 26-06-2016 09:00:00 13.2 C 97 % 12.73 C
1838 26-06-2016 09:05:00 13.3 C 97 % 12.83 C
1839 26-06-2016 09:10:00 13.3 C 97 % 12.83 C
1840 26-06-2016 09:15:00 13.5 C 97 % 13.03 C
1841 26-06-2016 09:20:00 13.6 C 96 % 12.97 C
1842 26-06-2016 09:25:00 13.8 C 96 % 13.17 C
1843 26-06-2016 09:30:00 13.9 C 95 % 13.11 C
1844 26-06-2016 09:35:00 14.2 C 94 % 13.25 C
1845 26-06-2016 09:40:00 14.4 C 94 % 13.45 C
1846 26-06-2016 09:45:00 14.6 C 93 % 13.48 C
1847 26-06-2016 09:50:00 14.7 C 90 % 13.08 C
1848 26-06-2016 09:55:00 14.9 C 90 % 13.28 C
1849 26-06-2016 10:00:00 15.2 C 90 % 13.57 C
1850 26-06-2016 10:05:00 15.4 C 88 % 13.42 C
Sensor: Nr:Datum:Temp:Feuchte:Taupunkt:
Aussen-T/F 1851 26-06-2016 10:10:00 15.6 C 88 % 13.62 C
1852 26-06-2016 10:15:00 15.8 C 88 % 13.82 C
1853 26-06-2016 10:20:00 16 C 88 % 14.01 C
1854 26-06-2016 10:25:00 16.3 C 86 % 13.95 C
1855 26-06-2016 10:30:00 16.4 C 84 % 13.69 C
1856 26-06-2016 10:35:00 16.4 C 83 % 13.51 C
1857 26-06-2016 10:40:00 16.4 C 84 % 13.69 C
1858 26-06-2016 10:45:00 16.6 C 81 % 13.33 C
1859 26-06-2016 10:50:00 16.7 C 81 % 13.43 C
1860 26-06-2016 10:55:00 16.8 C 79 % 13.14 C
1861 26-06-2016 11:00:00 16.7 C 80 % 13.23 C
1862 26-06-2016 11:05:00 16.8 C 80 % 13.33 C
1863 26-06-2016 11:10:00 16.9 C 78 % 13.04 C
1864 26-06-2016 11:15:00 17 C 79 % 13.33 C
1865 26-06-2016 11:20:00 17 C 80 % 13.53 C
1866 26-06-2016 11:25:00 17 C 78 % 13.14 C
1867 26-06-2016 11:30:00 17 C 77 % 12.94 C
1868 26-06-2016 11:35:00 17.1 C 76 % 12.84 C
1869 26-06-2016 11:40:00 17.2 C 75 % 12.73 C
1870 26-06-2016 11:45:00 17.3 C 76 % 13.03 C
1871 26-06-2016 11:50:00 17.4 C 75 % 12.93 C
1872 26-06-2016 11:55:00 17.5 C 73 % 12.61 C
1873 26-06-2016 12:00:00 17.4 C 75 % 12.93 C
1874 26-06-2016 12:05:00 17.4 C 73 % 12.51 C
1875 26-06-2016 12:10:00 17.6 C 75 % 13.12 C
Sensor: Nr:Datum:Temp:Feuchte:Taupunkt:
Aussen-T/F 1876 26-06-2016 12:15:00 17.7 C 73 % 12.8 C
1877 26-06-2016 12:20:00 17.8 C 72 % 12.69 C
1878 26-06-2016 12:25:00 18 C 71 % 12.67 C
1879 26-06-2016 12:30:00 18 C 73 % 13.09 C
1880 26-06-2016 12:35:00 18.1 C 72 % 12.98 C
1881 26-06-2016 12:40:00 18.1 C 74 % 13.4 C
1882 26-06-2016 12:45:00 18.1 C 73 % 13.19 C
1883 26-06-2016 12:50:00 18.3 C 73 % 13.38 C
1884 26-06-2016 12:55:00 18.4 C 72 % 13.26 C
1885 26-06-2016 13:00:00 18.6 C 71 % 13.24 C
1886 26-06-2016 13:05:00 18.8 C 68 % 12.77 C
1887 26-06-2016 13:10:00 19.1 C 69 % 13.28 C
1888 26-06-2016 13:15:00 19.1 C 68 % 13.06 C
1889 26-06-2016 13:20:00 19.2 C 68 % 13.15 C
1890 26-06-2016 13:25:00 19.4 C 65 % 12.66 C
1891 26-06-2016 13:30:00 19.6 C 65 % 12.84 C
1892 26-06-2016 13:35:00 19.6 C 67 % 13.31 C
1893 26-06-2016 13:40:00 19.5 C 65 % 12.75 C
1894 26-06-2016 13:45:00 19.6 C 67 % 13.31 C
1895 26-06-2016 13:50:00 19.6 C 68 % 13.54 C
1896 26-06-2016 13:55:00 19.7 C 67 % 13.4 C
1897 26-06-2016 14:00:00 19.7 C 62 % 12.22 C
1898 26-06-2016 14:05:00 19.6 C 65 % 12.84 C
1899 26-06-2016 14:10:00 19.4 C 68 % 13.34 C
1900 26-06-2016 14:15:00 19.4 C 72 % 14.22 C
Sensor: Nr:Datum:Temp:Feuchte:Taupunkt:
Aussen-T/F 1901 26-06-2016 14:20:00 19.6 C 68 % 13.54 C
1902 26-06-2016 14:25:00 19.7 C 67 % 13.4 C
1903 26-06-2016 14:30:00 19.8 C 67 % 13.5 C
1904 26-06-2016 14:35:00 19.9 C 70 % 14.27 C
1905 26-06-2016 14:40:00 19.8 C 69 % 13.95 C
1906 26-06-2016 14:45:00 19.9 C 65 % 13.13 C
1907 26-06-2016 14:50:00 19.8 C 68 % 13.73 C
1908 26-06-2016 14:55:00 19.8 C 69 % 13.95 C
1909 26-06-2016 15:00:00 19.8 C 66 % 13.27 C
1910 26-06-2016 15:05:00 19.8 C 66 % 13.27 C
1911 26-06-2016 15:10:00 19.9 C 68 % 13.82 C
1912 26-06-2016 15:15:00 19.9 C 68 % 13.82 C
1913 26-06-2016 15:20:00 19.9 C 66 % 13.36 C
1914 26-06-2016 15:25:00 19.8 C 69 % 13.95 C
1915 26-06-2016 15:30:00 20.1 C 69 % 14.24 C
1916 26-06-2016 15:35:00 20.6 C 66 % 14.03 C
1917 26-06-2016 15:40:00 21.1 C 62 % 13.54 C
1918 26-06-2016 15:45:00 21.4 C 62 % 13.82 C
1919 26-06-2016 15:50:00 21.6 C 64 % 14.5 C
1920 26-06-2016 15:55:00 21.9 C 62 % 14.29 C
1921 26-06-2016 16:00:00 21.9 C 60 % 13.79 C
1922 26-06-2016 16:05:00 21.4 C 59 % 13.06 C
1923 26-06-2016 16:10:00 20.9 C 64 % 13.84 C
1924 26-06-2016 16:15:00 20.5 C 63 % 13.22 C
1925 26-06-2016 16:20:00 20.2 C 65 % 13.41 C
Sensor: Nr:Datum:Temp:Feuchte:Taupunkt:
Aussen-T/F 1926 26-06-2016 16:25:00 20.1 C 64 % 13.08 C
1927 26-06-2016 16:30:00 20.1 C 67 % 13.78 C
1928 26-06-2016 16:35:00 20.2 C 69 % 14.33 C
1929 26-06-2016 16:40:00 20.2 C 65 % 13.41 C
1930 26-06-2016 16:45:00 20.4 C 68 % 14.3 C
1931 26-06-2016 16:50:00 20.9 C 65 % 14.08 C
1932 26-06-2016 16:55:00 21.3 C 62 % 13.73 C
1933 26-06-2016 17:00:00 21.3 C 62 % 13.73 C
1934 26-06-2016 17:05:00 20.9 C 60 % 12.85 C
1935 26-06-2016 17:10:00 20.4 C 59 % 12.12 C
1936 26-06-2016 17:15:00 19.7 C 63 % 12.46 C
1937 26-06-2016 17:20:00 19.3 C 68 % 13.25 C
1938 26-06-2016 17:25:00 19.1 C 66 % 12.6 C
1939 26-06-2016 17:30:00 18.9 C 71 % 13.53 C
1940 26-06-2016 17:35:00 18.7 C 68 % 12.68 C
1941 26-06-2016 17:40:00 18.7 C 72 % 13.55 C
1942 26-06-2016 17:45:00 18.7 C 72 % 13.55 C
1943 26-06-2016 17:50:00 18.8 C 71 % 13.43 C
1944 26-06-2016 17:55:00 18.8 C 69 % 13 C
1945 26-06-2016 18:00:00 18.9 C 72 % 13.74 C
1946 26-06-2016 18:05:00 18.9 C 69 % 13.09 C
1947 26-06-2016 18:10:00 18.9 C 71 % 13.53 C
1948 26-06-2016 18:15:00 18.8 C 69 % 13 C
1949 26-06-2016 18:20:00 18.8 C 73 % 13.86 C
1950 26-06-2016 18:25:00 18.7 C 75 % 14.18 C
Sensor: Nr:Datum:Temp:Feuchte:Taupunkt:
Aussen-T/F 1951 26-06-2016 18:30:00 18.6 C 76 % 14.29 C
1952 26-06-2016 18:35:00 18.6 C 77 % 14.49 C
1953 26-06-2016 18:40:00 18.6 C 80 % 15.08 C
1954 26-06-2016 18:45:00 18.6 C 78 % 14.69 C
1955 26-06-2016 18:50:00 18.6 C 72 % 13.46 C
1956 26-06-2016 18:55:00 18.1 C 71 % 12.76 C
1957 26-06-2016 19:00:00 17.7 C 72 % 12.59 C
1958 26-06-2016 19:05:00 17.4 C 74 % 12.72 C
1959 26-06-2016 19:10:00 17.6 C 75 % 13.12 C
1960 26-06-2016 19:15:00 17.8 C 75 % 13.31 C
1961 26-06-2016 19:20:00 18.2 C 75 % 13.7 C
1962 26-06-2016 19:25:00 18.3 C 75 % 13.79 C
1963 26-06-2016 19:30:00 18.2 C 75 % 13.7 C
1964 26-06-2016 19:35:00 18 C 75 % 13.51 C
1965 26-06-2016 19:40:00 17.8 C 75 % 13.31 C
1966 26-06-2016 19:45:00 17.7 C 76 % 13.42 C
1967 26-06-2016 19:50:00 17.5 C 81 % 14.2 C
1968 26-06-2016 19:55:00 17.3 C 83 % 14.39 C
1969 26-06-2016 20:00:00 17.1 C 83 % 14.19 C
1970 26-06-2016 20:05:00 16.8 C 84 % 14.08 C
1971 26-06-2016 20:10:00 16.6 C 86 % 14.25 C
1972 26-06-2016 20:15:00 16.4 C 86 % 14.05 C
1973 26-06-2016 20:20:00 16.2 C 87 % 14.03 C
1974 26-06-2016 20:25:00 16.1 C 88 % 14.11 C
1975 26-06-2016 20:30:00 15.9 C 88 % 13.92 C
Sensor: Nr:Datum:Temp:Feuchte:Taupunkt:
Aussen-T/F 1976 26-06-2016 20:35:00 15.7 C 88 % 13.72 C
1977 26-06-2016 20:40:00 15.6 C 89 % 13.79 C
1978 26-06-2016 20:45:00 15.4 C 89 % 13.6 C
1979 26-06-2016 20:50:00 15.3 C 89 % 13.5 C
1980 26-06-2016 20:55:00 15.2 C 90 % 13.57 C
1981 26-06-2016 21:00:00 15.1 C 90 % 13.47 C
1982 26-06-2016 21:05:00 15.1 C 91 % 13.64 C
1983 26-06-2016 21:10:00 15 C 90 % 13.37 C
1984 26-06-2016 21:15:00 15 C 91 % 13.54 C
1985 26-06-2016 21:20:00 14.9 C 90 % 13.28 C
1986 26-06-2016 21:25:00 14.8 C 90 % 13.18 C
1987 26-06-2016 21:30:00 14.8 C 91 % 13.35 C
1988 26-06-2016 21:35:00 14.7 C 91 % 13.25 C
1989 26-06-2016 21:40:00 14.6 C 91 % 13.15 C
1990 26-06-2016 21:45:00 14.5 C 91 % 13.05 C
1991 26-06-2016 21:50:00 14.3 C 91 % 12.85 C
1992 26-06-2016 21:55:00 14.2 C 91 % 12.75 C
1993 26-06-2016 22:00:00 14 C 91 % 12.56 C
1994 26-06-2016 22:05:00 13.8 C 91 % 12.36 C
1995 26-06-2016 22:10:00 13.7 C 91 % 12.26 C
1996 26-06-2016 22:15:00 13.5 C 92 % 12.23 C
1997 26-06-2016 22:20:00 13.4 C 92 % 12.13 C
1998 26-06-2016 22:25:00 13.3 C 92 % 12.03 C
1999 26-06-2016 22:30:00 13.2 C 93 % 12.09 C
2000 26-06-2016 22:35:00 13.1 C 93 % 11.99 C
Sensor: Nr:Datum:Temp:Feuchte:Taupunkt:
Aussen-T/F 2001 26-06-2016 22:40:00 13 C 93 % 11.9 C
2002 26-06-2016 22:45:00 12.9 C 94 % 11.96 C
2003 26-06-2016 22:50:00 12.9 C 93 % 11.8 C
2004 26-06-2016 22:55:00 12.8 C 94 % 11.86 C
2005 26-06-2016 23:00:00 12.8 C 94 % 11.86 C
2006 26-06-2016 23:05:00 12.8 C 94 % 11.86 C
2007 26-06-2016 23:10:00 12.7 C 94 % 11.76 C
2008 26-06-2016 23:15:00 12.7 C 94 % 11.76 C
2009 26-06-2016 23:20:00 12.6 C 94 % 11.66 C
2010 26-06-2016 23:25:00 12.6 C 94 % 11.66 C
2011 26-06-2016 23:30:00 12.6 C 94 % 11.66 C
2012 26-06-2016 23:35:00 12.6 C 95 % 11.82 C
2013 26-06-2016 23:40:00 12.5 C 95 % 11.72 C
2014 26-06-2016 23:45:00 12.5 C 95 % 11.72 C
2015 26-06-2016 23:50:00 12.5 C 95 % 11.72 C
2016 26-06-2016 23:55:00 12.5 C 95 % 11.72 C

Legende:
   Min
   Max


Maximal/Minimal-Werte vom 20.06.2016 - 26.06.2016

Sensor Min Max Avg
Temp
(Aussen-T/F)
7.6 °C
20-06-2016  05:50:00
35 °C
23-06-2016  18:45:00
18.83 °C
Feuchte
(Aussen-T/F)
51 %
23-06-2016  17:50:00
98 %
26-06-2016  07:15:00
87.36 %
Taupunkt
(Aussen-T/F)
6.8 C
20-06-2016  05:35:00
25.78 C
23-06-2016  19:10:00
16.48 C

Die Daten stammen von einer Davis Vantage Pro 2 Wetter-Station und werden unter Linux mit der Software wview2wettercgi und aufbereitet. Alle Angaben erfolgen ohne Gewähr für ihre Vollständigkeit oder Richtigkeit.
Kontakt: Rainer Krienke krienke@uni-koblenz.de . Meine Webseiten an der Uni Koblenz oder privat.
Version: $Revision: 0.78 $